Observation data for Fort Lancaster on 08/20/2019      Previous  Date  Next       Current Mesonet Observations  Soil Data  Daily Summary Page  Observations in Plain Language
KLA1 200500Z 12003KT 29/17 A3002 RMK A01 T02880174  RH  050%=      5-min Rain = 0
KLA1 200501Z 12003KT 29/17 A3002 RMK A01 T02880173  RH  050%=      5-min Rain = 0
KLA1 200502Z 12003KT 29/17 A3002 RMK A01 T02880172  RH  050%=      5-min Rain = 0
KLA1 200503Z 12003KT 29/17 A3002 RMK A01 T02880172  RH  049%=      5-min Rain = 0
KLA1 200504Z 12003KT 29/17 A3002 RMK A01 T02880172  RH  050%=      5-min Rain = 0
KLA1 200505Z 13004KT 29/17 A3002 RMK A01 T02880172  RH  050%=      5-min Rain = 0
KLA1 200506Z 13003KT 29/17 A3002 RMK A01 T02880173  RH  050%=      5-min Rain = 0
KLA1 200507Z 13003KT 29/17 A3002 RMK A01 T02880173  RH  050%=      5-min Rain = 0
KLA1 200508Z 11003KT 29/17 A3002 RMK A01 T02880174  RH  050%=      5-min Rain = 0
KLA1 200509Z 11003KT 29/17 A3002 RMK A01 T02880174  RH  050%=      5-min Rain = 0
KLA1 200510Z 12003KT 29/18 A3002 RMK A01 T02890175  RH  050%=      5-min Rain = 0
KLA1 200511Z 11003KT 29/18 A3002 RMK A01 T02880175  RH  050%=      5-min Rain = 0
KLA1 200512Z 13003KT 29/17 A3002 RMK A01 T02880174  RH  050%=      5-min Rain = 0
KLA1 200513Z 12002KT 29/18 A3002 RMK A01 T02880175  RH  050%=      5-min Rain = 0
KLA1 200514Z 13003KT 29/18 A3002 RMK A01 T02880175  RH  051%=      5-min Rain = 0
KLA1 200515Z 13002KT 29/18 A3002 RMK A01 T02870176  RH  051%=      5-min Rain = 0
KLA1 200516Z 13003KT 29/18 A3002 RMK A01 T02870176  RH  051%=      5-min Rain = 0
KLA1 200517Z 14004KT 29/18 A3002 RMK A01 T02870175  RH  051%=      5-min Rain = 0
KLA1 200518Z 13003KT 29/18 A3002 RMK A01 T02870177  RH  051%=      5-min Rain = 0
KLA1 200519Z 12003KT 29/18 A3002 RMK A01 T02870177  RH  051%=      5-min Rain = 0
KLA1 200520Z 13003KT 29/18 A3002 RMK A01 T02870177  RH  052%=      5-min Rain = 0
KLA1 200521Z 13003KT 29/18 A3002 RMK A01 T02860178  RH  052%=      5-min Rain = 0
KLA1 200522Z 14003KT 29/18 A3002 RMK A01 T02850179  RH  052%=      5-min Rain = 0
KLA1 200523Z 14004KT 29/18 A3002 RMK A01 T02850179  RH  053%=      5-min Rain = 0
KLA1 200524Z 14003KT 29/18 A3002 RMK A01 T02850179  RH  053%=      5-min Rain = 0
KLA1 200525Z 13002KT 29/18 A3002 RMK A01 T02850180  RH  053%=      5-min Rain = 0
KLA1 200526Z 14003KT 28/18 A3002 RMK A01 T02840180  RH  053%=      5-min Rain = 0
KLA1 200527Z 13002KT 28/18 A3002 RMK A01 T02840181  RH  054%=      5-min Rain = 0
KLA1 200528Z 14002KT 28/18 A3002 RMK A01 T02830181  RH  054%=      5-min Rain = 0
KLA1 200529Z 14003KT 28/18 A3002 RMK A01 T02820180  RH  054%=      5-min Rain = 0
KLA1 200530Z 14004KT 28/18 A3002 RMK A01 T02820180  RH  054%=      5-min Rain = 0
KLA1 200531Z 13004KT 28/18 A3002 RMK A01 T02820180  RH  054%=      5-min Rain = 0
KLA1 200532Z 14005KT 28/18 A3002 RMK A01 T02830181  RH  054%=      5-min Rain = 0
KLA1 200533Z 13004KT 28/18 A3002 RMK A01 T02830181  RH  054%=      5-min Rain = 0
KLA1 200534Z 13005KT 28/18 A3002 RMK A01 T02830181  RH  054%=      5-min Rain = 0
KLA1 200535Z 13005KT 28/18 A3002 RMK A01 T02840181  RH  054%=      5-min Rain = 0
KLA1 200536Z 13005KT 29/18 A3002 RMK A01 T02860181  RH  053%=      5-min Rain = 0
KLA1 200537Z 13005KT 29/18 A3002 RMK A01 T02870181  RH  053%=      5-min Rain = 0
KLA1 200538Z 12004KT 29/18 A3002 RMK A01 T02890182  RH  052%=      5-min Rain = 0
KLA1 200539Z 13004KT 29/18 A3002 RMK A01 T02890181  RH  052%=      5-min Rain = 0
KLA1 200540Z 12005KT 29/18 A3002 RMK A01 T02900181  RH  052%=      5-min Rain = 0
KLA1 200541Z 13006KT 29/18 A3003 RMK A01 T02910180  RH  051%=      5-min Rain = 0
KLA1 200542Z 13005KT 29/18 A3002 RMK A01 T02920181  RH  051%=      5-min Rain = 0
KLA1 200543Z 13006KT 29/18 A3002 RMK A01 T02930181  RH  051%=      5-min Rain = 0
KLA1 200544Z 13006KT 29/18 A3002 RMK A01 T02930180  RH  051%=      5-min Rain = 0
KLA1 200545Z 13007KT 29/18 A3002 RMK A01 T02940180  RH  050%=      5-min Rain = 0
KLA1 200546Z 13006KT 29/18 A3002 RMK A01 T02940180  RH  050%=      5-min Rain = 0
KLA1 200547Z 13006KT 29/18 A3002 RMK A01 T02940180  RH  050%=      5-min Rain = 0
KLA1 200548Z 13006KT 29/18 A3002 RMK A01 T02940180  RH  050%=      5-min Rain = 0
KLA1 200549Z 13006KT 30/18 A3002 RMK A01 T02950180  RH  050%=      5-min Rain = 0
KLA1 200550Z 13007KT 29/18 A3002 RMK A01 T02940180  RH  050%=      5-min Rain = 0
KLA1 200551Z 12006KT 29/18 A3002 RMK A01 T02940179  RH  050%=      5-min Rain = 0
KLA1 200552Z 13006KT 30/18 A3002 RMK A01 T02960179  RH  050%=      5-min Rain = 0
KLA1 200553Z 13009KT 30/18 A3002 RMK A01 T02970179  RH  049%=      5-min Rain = 0
KLA1 200554Z 13009KT 30/18 A3002 RMK A01 T02970179  RH  049%=      5-min Rain = 0
KLA1 200555Z 13008KT 30/18 A3002 RMK A01 T02980179  RH  049%=      5-min Rain = 0
KLA1 200556Z 13007KT 30/18 A3002 RMK A01 T02990179  RH  049%=      5-min Rain = 0
KLA1 200557Z 13006KT 30/18 A3002 RMK A01 T02980179  RH  049%=      5-min Rain = 0
KLA1 200558Z 13006KT 30/18 A3002 RMK A01 T02990180  RH  049%=      5-min Rain = 0
KLA1 200559Z 13006KT 30/18 A3002 RMK A01 T02980180  RH  049%=      5-min Rain = 0
KLA1 200600Z 13006KT 30/18 A3003 RMK A01 T02980180  RH  049%=      5-min Rain = 0
KLA1 200601Z 13006KT 30/18 A3003 RMK A01 T02970179  RH  049%=      5-min Rain = 0
KLA1 200602Z 13006KT 30/18 A3003 RMK A01 T02970180  RH  049%=      5-min Rain = 0
KLA1 200603Z 13008KT 30/18 A3003 RMK A01 T02970180  RH  049%=      5-min Rain = 0
KLA1 200604Z 13007KT 30/18 A3003 RMK A01 T02960179  RH  049%=      5-min Rain = 0
KLA1 200605Z 13006KT 30/18 A3003 RMK A01 T02960179  RH  049%=      5-min Rain = 0
KLA1 200606Z 13005KT 30/18 A3003 RMK A01 T02960180  RH  050%=      5-min Rain = 0
KLA1 200607Z 13006KT 30/18 A3003 RMK A01 T02950180  RH  050%=      5-min Rain = 0
KLA1 200608Z 14007KT 30/18 A3003 RMK A01 T02950180  RH  050%=      5-min Rain = 0
KLA1 200609Z 13006KT 29/18 A3003 RMK A01 T02940179  RH  050%=      5-min Rain = 0
KLA1 200610Z 13005KT 30/18 A3002 RMK A01 T02950179  RH  050%=      5-min Rain = 0
KLA1 200611Z 13007KT 30/18 A3002 RMK A01 T02950179  RH  050%=      5-min Rain = 0
KLA1 200612Z 13007KT 29/18 A3002 RMK A01 T02940179  RH  050%=      5-min Rain = 0
KLA1 200613Z 13006KT 30/18 A3002 RMK A01 T02950179  RH  050%=      5-min Rain = 0
KLA1 200614Z 13005KT 29/18 A3003 RMK A01 T02940179  RH  050%=      5-min Rain = 0
KLA1 200615Z 13006KT 29/18 A3003 RMK A01 T02940179  RH  050%=      5-min Rain = 0
KLA1 200616Z 13011KT 29/18 A3003 RMK A01 T02940178  RH  050%=      5-min Rain = 0
KLA1 200617Z 13008KT 30/18 A3003 RMK A01 T02950177  RH  049%=      5-min Rain = 0
KLA1 200618Z 13006KT 30/18 A3003 RMK A01 T02960178  RH  049%=      5-min Rain = 0
KLA1 200619Z 13007KT 30/18 A3003 RMK A01 T02960179  RH  049%=      5-min Rain = 0
KLA1 200620Z 13007KT 30/18 A3002 RMK A01 T02960178  RH  049%=      5-min Rain = 0
KLA1 200621Z 13007KT 30/18 A3002 RMK A01 T02960179  RH  049%=      5-min Rain = 0
KLA1 200622Z 13007KT 30/18 A3002 RMK A01 T02950178  RH  049%=      5-min Rain = 0
KLA1 200623Z 13007KT 30/18 A3002 RMK A01 T02950178  RH  049%=      5-min Rain = 0
KLA1 200624Z 14008KT 30/18 A3002 RMK A01 T02950178  RH  049%=      5-min Rain = 0
KLA1 200625Z 13007KT 30/18 A3002 RMK A01 T02950178  RH  049%=      5-min Rain = 0
KLA1 200626Z 13007KT 30/18 A3002 RMK A01 T02950179  RH  050%=      5-min Rain = 0
KLA1 200627Z 13009KT 29/18 A3002 RMK A01 T02940178  RH  050%=      5-min Rain = 0
KLA1 200628Z 13007KT 30/18 A3002 RMK A01 T02950178  RH  050%=      5-min Rain = 0
KLA1 200629Z 13006KT 29/18 A3002 RMK A01 T02940179  RH  050%=      5-min Rain = 0
KLA1 200630Z 13007KT 29/18 A3002 RMK A01 T02940179  RH  050%=      5-min Rain = 0
KLA1 200631Z 14008KT 29/18 A3002 RMK A01 T02940178  RH  050%=      5-min Rain = 0
KLA1 200632Z 14008KT 29/18 A3002 RMK A01 T02940179  RH  050%=      5-min Rain = 0
KLA1 200633Z 14006KT 29/18 A3002 RMK A01 T02940179  RH  050%=      5-min Rain = 0
KLA1 200634Z 13006KT 29/18 A3002 RMK A01 T02930179  RH  050%=      5-min Rain = 0
KLA1 200635Z 14006KT 29/18 A3002 RMK A01 T02930179  RH  050%=      5-min Rain = 0
KLA1 200636Z 13006KT 29/18 A3002 RMK A01 T02920179  RH  050%=      5-min Rain = 0
KLA1 200637Z 13007KT 29/18 A3002 RMK A01 T02920179  RH  051%=      5-min Rain = 0
KLA1 200638Z 13007KT 29/18 A3002 RMK A01 T02920179  RH  051%=      5-min Rain = 0
KLA1 200639Z 13007KT 29/18 A3002 RMK A01 T02920179  RH  051%=      5-min Rain = 0
KLA1 200640Z 14007KT 29/18 A3002 RMK A01 T02920179  RH  051%=      5-min Rain = 0
KLA1 200641Z 13005KT 29/18 A3002 RMK A01 T02920179  RH  051%=      5-min Rain = 0
KLA1 200642Z 13005KT 29/18 A3002 RMK A01 T02920180  RH  051%=      5-min Rain = 0
KLA1 200643Z 13007KT 29/18 A3002 RMK A01 T02910179  RH  051%=      5-min Rain = 0
KLA1 200644Z 13007KT 29/18 A3002 RMK A01 T02900179  RH  051%=      5-min Rain = 0
KLA1 200645Z 13008KT 29/18 A3002 RMK A01 T02910178  RH  051%=      5-min Rain = 0
KLA1 200646Z 13007KT 29/18 A3002 RMK A01 T02910179  RH  051%=      5-min Rain = 0
KLA1 200647Z 13006KT 29/18 A3002 RMK A01 T02920179  RH  051%=      5-min Rain = 0
KLA1 200648Z 13006KT 29/18 A3002 RMK A01 T02920180  RH  051%=      5-min Rain = 0
KLA1 200649Z 13008KT 29/18 A3002 RMK A01 T02920179  RH  051%=      5-min Rain = 0
KLA1 200650Z 14006KT 29/18 A3002 RMK A01 T02910179  RH  051%=      5-min Rain = 0
KLA1 200651Z 13007KT 29/18 A3002 RMK A01 T02910180  RH  051%=      5-min Rain = 0
KLA1 200652Z 13007KT 29/18 A3002 RMK A01 T02910179  RH  051%=      5-min Rain = 0
KLA1 200653Z 12005KT 29/18 A3002 RMK A01 T02910180  RH  051%=      5-min Rain = 0
KLA1 200654Z 13008KT 29/18 A3002 RMK A01 T02910180  RH  051%=      5-min Rain = 0
KLA1 200655Z 13007KT 29/18 A3002 RMK A01 T02910179  RH  051%=      5-min Rain = 0
KLA1 200656Z 13005KT 29/18 A3002 RMK A01 T02910179  RH  051%=      5-min Rain = 0
KLA1 200657Z 13005KT 29/18 A3002 RMK A01 T02910180  RH  051%=      5-min Rain = 0
KLA1 200658Z 13006KT 29/18 A3002 RMK A01 T02910180  RH  051%=      5-min Rain = 0
KLA1 200659Z 13006KT 29/18 A3002 RMK A01 T02910180  RH  051%=      5-min Rain = 0
KLA1 200700Z 13006KT 29/18 A3002 RMK A01 T02900180  RH  051%=      5-min Rain = 0
KLA1 200701Z 13005KT 29/18 A3002 RMK A01 T02900180  RH  052%=      5-min Rain = 0
KLA1 200702Z 13005KT 29/18 A3002 RMK A01 T02890180  RH  052%=      5-min Rain = 0
KLA1 200703Z 13005KT 29/18 A3002 RMK A01 T02890180  RH  052%=      5-min Rain = 0
KLA1 200704Z 12005KT 29/18 A3002 RMK A01 T02890180  RH  052%=      5-min Rain = 0
KLA1 200705Z 13007KT 29/18 A3002 RMK A01 T02880180  RH  052%=      5-min Rain = 0
KLA1 200706Z 13007KT 29/18 A3002 RMK A01 T02880180  RH  052%=      5-min Rain = 0
KLA1 200707Z 13005KT 29/18 A3002 RMK A01 T02880180  RH  052%=      5-min Rain = 0
KLA1 200708Z 13006KT 29/18 A3002 RMK A01 T02880180  RH  052%=      5-min Rain = 0
KLA1 200709Z 12005KT 29/18 A3002 RMK A01 T02890180  RH  052%=      5-min Rain = 0
KLA1 200710Z 13004KT 29/18 A3002 RMK A01 T02890180  RH  052%=      5-min Rain = 0
KLA1 200711Z 13006KT 29/18 A3002 RMK A01 T02880181  RH  052%=      5-min Rain = 0
KLA1 200712Z 13007KT 29/18 A3002 RMK A01 T02870180  RH  052%=      5-min Rain = 0
KLA1 200713Z 12008KT 29/18 A3002 RMK A01 T02880180  RH  052%=      5-min Rain = 0
KLA1 200714Z 13006KT 29/18 A3002 RMK A01 T02880180  RH  052%=      5-min Rain = 0
KLA1 200715Z 13006KT 29/18 A3002 RMK A01 T02880180  RH  052%=      5-min Rain = 0
KLA1 200716Z 13006KT 29/18 A3002 RMK A01 T02880180  RH  052%=      5-min Rain = 0
KLA1 200717Z 13006KT 29/18 A3002 RMK A01 T02880180  RH  052%=      5-min Rain = 0
KLA1 200718Z 13006KT 29/18 A3002 RMK A01 T02880181  RH  052%=      5-min Rain = 0
KLA1 200719Z 13005KT 29/18 A3002 RMK A01 T02880181  RH  052%=      5-min Rain = 0
KLA1 200720Z 14007KT 29/18 A3002 RMK A01 T02880180  RH  052%=      5-min Rain = 0
KLA1 200721Z 12006KT 29/18 A3002 RMK A01 T02880180  RH  052%=      5-min Rain = 0
KLA1 200722Z 12006KT 29/18 A3002 RMK A01 T02880181  RH  052%=      5-min Rain = 0
KLA1 200723Z 13006KT 29/18 A3002 RMK A01 T02880181  RH  052%=      5-min Rain = 0
KLA1 200724Z 12006KT 29/18 A3002 RMK A01 T02880181  RH  053%=      5-min Rain = 0
KLA1 200725Z 13007KT 29/18 A3002 RMK A01 T02870180  RH  053%=      5-min Rain = 0
KLA1 200726Z 12007KT 29/18 A3002 RMK A01 T02870180  RH  053%=      5-min Rain = 0
KLA1 200727Z 13006KT 29/18 A3002 RMK A01 T02870181  RH  053%=      5-min Rain = 0
KLA1 200728Z 13006KT 29/18 A3002 RMK A01 T02870181  RH  053%=      5-min Rain = 0
KLA1 200729Z 13007KT 29/18 A3002 RMK A01 T02860180  RH  053%=      5-min Rain = 0
KLA1 200730Z 13006KT 29/18 A3002 RMK A01 T02860181  RH  053%=      5-min Rain = 0
KLA1 200731Z 13008KT 29/18 A3002 RMK A01 T02860181  RH  053%=      5-min Rain = 0
KLA1 200732Z 13007KT 29/18 A3002 RMK A01 T02860181  RH  053%=      5-min Rain = 0
KLA1 200733Z 13007KT 29/18 A3002 RMK A01 T02860181  RH  053%=      5-min Rain = 0
KLA1 200734Z 13006KT 29/18 A3002 RMK A01 T02860181  RH  053%=      5-min Rain = 0
KLA1 200735Z 12008KT 29/18 A3002 RMK A01 T02860181  RH  053%=      5-min Rain = 0
KLA1 200736Z 13008KT 29/18 A3002 RMK A01 T02860181  RH  053%=      5-min Rain = 0
KLA1 200737Z 13006KT 29/18 A3002 RMK A01 T02870181  RH  053%=      5-min Rain = 0
KLA1 200738Z 13006KT 29/18 A3002 RMK A01 T02870181  RH  053%=      5-min Rain = 0
KLA1 200739Z 13007KT 29/18 A3002 RMK A01 T02870181  RH  053%=      5-min Rain = 0
KLA1 200740Z 13006KT 29/18 A3002 RMK A01 T02870181  RH  053%=      5-min Rain = 0
KLA1 200741Z 13007KT 29/18 A3002 RMK A01 T02860181  RH  053%=      5-min Rain = 0
KLA1 200742Z 13007KT 29/18 A3002 RMK A01 T02850181  RH  053%=      5-min Rain = 0
KLA1 200743Z 13007KT 29/18 A3002 RMK A01 T02850181  RH  053%=      5-min Rain = 0
KLA1 200744Z 13008KT 29/18 A3002 RMK A01 T02850181  RH  053%=      5-min Rain = 0
KLA1 200745Z 13008KT 29/18 A3002 RMK A01 T02850181  RH  053%=      5-min Rain = 0
KLA1 200746Z 13009KT 29/18 A3002 RMK A01 T02860181  RH  053%=      5-min Rain = 0
KLA1 200747Z 13009KT 29/18 A3002 RMK A01 T02860181  RH  053%=      5-min Rain = 0
KLA1 200748Z 13008KT 29/18 A3002 RMK A01 T02870181  RH  053%=      5-min Rain = 0
KLA1 200749Z 13007KT 29/18 A3002 RMK A01 T02870182  RH  053%=      5-min Rain = 0
KLA1 200750Z 13007KT 29/18 A3002 RMK A01 T02870182  RH  053%=      5-min Rain = 0
KLA1 200751Z 13008KT 29/18 A3003 RMK A01 T02870182  RH  053%=      5-min Rain = 0
KLA1 200752Z 14007KT 29/18 A3003 RMK A01 T02860182  RH  053%=      5-min Rain = 0
KLA1 200753Z 13007KT 29/18 A3002 RMK A01 T02860182  RH  053%=      5-min Rain = 0
KLA1 200754Z 13006KT 29/18 A3002 RMK A01 T02860182  RH  054%=      5-min Rain = 0
KLA1 200755Z 13010KT 29/18 A3002 RMK A01 T02860182  RH  054%=      5-min Rain = 0
KLA1 200756Z 13007KT 29/18 A3002 RMK A01 T02860182  RH  053%=      5-min Rain = 0
KLA1 200757Z 13007KT 29/18 A3002 RMK A01 T02860182  RH  053%=      5-min Rain = 0
KLA1 200758Z 13006KT 29/18 A3002 RMK A01 T02860183  RH  054%=      5-min Rain = 0
KLA1 200759Z 13006KT 29/18 A3002 RMK A01 T02850183  RH  054%=      5-min Rain = 0
KLA1 200800Z 13006KT 28/18 A3002 RMK A01 T02840182  RH  054%=      5-min Rain = 0
KLA1 200801Z 14008KT 28/18 A3002 RMK A01 T02840182  RH  054%=      5-min Rain = 0
KLA1 200802Z 14007KT 28/18 A3002 RMK A01 T02840182  RH  054%=      5-min Rain = 0
KLA1 200803Z 13006KT 28/18 A3002 RMK A01 T02840183  RH  054%=      5-min Rain = 0
KLA1 200804Z 13006KT 28/18 A3002 RMK A01 T02840183  RH  054%=      5-min Rain = 0
KLA1 200805Z 13007KT 28/18 A3002 RMK A01 T02840183  RH  054%=      5-min Rain = 0
KLA1 200806Z 14006KT 28/18 A3002 RMK A01 T02830183  RH  054%=      5-min Rain = 0
KLA1 200807Z 14006KT 28/18 A3002 RMK A01 T02830183  RH  055%=      5-min Rain = 0
KLA1 200808Z 14008KT 28/18 A3002 RMK A01 T02830183  RH  055%=      5-min Rain = 0
KLA1 200809Z 13006KT 28/18 A3002 RMK A01 T02830182  RH  055%=      5-min Rain = 0
KLA1 200810Z 14006KT 28/18 A3002 RMK A01 T02830183  RH  055%=      5-min Rain = 0
KLA1 200811Z 14006KT 28/18 A3002 RMK A01 T02830183  RH  055%=      5-min Rain = 0
KLA1 200812Z 14006KT 28/18 A3002 RMK A01 T02820183  RH  055%=      5-min Rain = 0
KLA1 200813Z 13008KT 28/18 A3002 RMK A01 T02820184  RH  055%=      5-min Rain = 0
KLA1 200814Z 13006KT 28/18 A3002 RMK A01 T02820184  RH  055%=      5-min Rain = 0
KLA1 200815Z 13007KT 28/19 A3002 RMK A01 T02820185  RH  056%=      5-min Rain = 0
KLA1 200816Z 14007KT 28/19 A3002 RMK A01 T02810185  RH  056%=      5-min Rain = 0
KLA1 200817Z 14007KT 28/19 A3002 RMK A01 T02810186  RH  056%=      5-min Rain = 0
KLA1 200818Z 13007KT 28/19 A3002 RMK A01 T02810185  RH  056%=      5-min Rain = 0
KLA1 200819Z 13006KT 28/19 A3002 RMK A01 T02810186  RH  056%=      5-min Rain = 0
KLA1 200820Z 14005KT 28/19 A3002 RMK A01 T02800186  RH  056%=      5-min Rain = 0
KLA1 200821Z 13006KT 28/19 A3002 RMK A01 T02810187  RH  057%=      5-min Rain = 0
KLA1 200822Z 13006KT 28/19 A3002 RMK A01 T02810187  RH  057%=      5-min Rain = 0
KLA1 200823Z 13007KT 28/19 A3002 RMK A01 T02800189  RH  057%=      5-min Rain = 0
KLA1 200824Z 13006KT 28/19 A3002 RMK A01 T02800190  RH  058%=      5-min Rain = 0
KLA1 200825Z 13007KT 28/19 A3002 RMK A01 T02800190  RH  058%=      5-min Rain = 0
KLA1 200826Z 13006KT 28/19 A3002 RMK A01 T02800190  RH  058%=      5-min Rain = 0
KLA1 200827Z 13006KT 28/19 A3002 RMK A01 T02800190  RH  058%=      5-min Rain = 0
KLA1 200828Z 13006KT 28/19 A3002 RMK A01 T02790190  RH  058%=      5-min Rain = 0
KLA1 200829Z 13006KT 28/19 A3002 RMK A01 T02790191  RH  059%=      5-min Rain = 0
KLA1 200830Z 13006KT 28/19 A3002 RMK A01 T02790191  RH  059%=      5-min Rain = 0
KLA1 200831Z 13006KT 28/19 A3002 RMK A01 T02780191  RH  059%=      5-min Rain = 0
KLA1 200832Z 13005KT 28/19 A3002 RMK A01 T02780192  RH  059%=      5-min Rain = 0
KLA1 200833Z 13005KT 28/19 A3002 RMK A01 T02780191  RH  059%=      5-min Rain = 0
KLA1 200834Z 13006KT 28/19 A3002 RMK A01 T02780191  RH  059%=      5-min Rain = 0
KLA1 200835Z 13006KT 28/19 A3002 RMK A01 T02770192  RH  060%=      5-min Rain = 0
KLA1 200836Z 13006KT 28/19 A3002 RMK A01 T02770192  RH  060%=      5-min Rain = 0
KLA1 200837Z 13006KT 28/19 A3002 RMK A01 T02770192  RH  060%=      5-min Rain = 0
KLA1 200838Z 13006KT 28/19 A3002 RMK A01 T02770193  RH  060%=      5-min Rain = 0
KLA1 200839Z 13006KT 28/19 A3002 RMK A01 T02770193  RH  060%=      5-min Rain = 0
KLA1 200840Z 13006KT 28/19 A3002 RMK A01 T02770193  RH  060%=      5-min Rain = 0
KLA1 200841Z 13007KT 28/19 A3002 RMK A01 T02770194  RH  061%=      5-min Rain = 0
KLA1 200842Z 13007KT 28/19 A3002 RMK A01 T02770194  RH  061%=      5-min Rain = 0
KLA1 200843Z 13006KT 28/19 A3002 RMK A01 T02760194  RH  061%=      5-min Rain = 0
KLA1 200844Z 14006KT 28/19 A3002 RMK A01 T02760193  RH  061%=      5-min Rain = 0
KLA1 200845Z 13005KT 28/19 A3002 RMK A01 T02760194  RH  061%=      5-min Rain = 0
KLA1 200846Z 13007KT 28/19 A3002 RMK A01 T02760194  RH  061%=      5-min Rain = 0
KLA1 200847Z 13004KT 28/19 A3002 RMK A01 T02760194  RH  061%=      5-min Rain = 0
KLA1 200848Z 13006KT 28/19 A3002 RMK A01 T02750194  RH  061%=      5-min Rain = 0
KLA1 200849Z 13006KT 28/19 A3002 RMK A01 T02750194  RH  061%=      5-min Rain = 0
KLA1 200850Z 13006KT 28/19 A3002 RMK A01 T02750194  RH  061%=      5-min Rain = 0
KLA1 200851Z 13006KT 28/20 A3002 RMK A01 T02750195  RH  062%=      5-min Rain = 0
KLA1 200852Z 14007KT 28/20 A3002 RMK A01 T02750195  RH  062%=      5-min Rain = 0
KLA1 200853Z 13006KT 28/20 A3002 RMK A01 T02750195  RH  062%=      5-min Rain = 0
KLA1 200854Z 13006KT 28/20 A3002 RMK A01 T02750195  RH  062%=      5-min Rain = 0
KLA1 200855Z 13006KT 28/20 A3002 RMK A01 T02750195  RH  062%=      5-min Rain = 0
KLA1 200856Z 14007KT 27/20 A3002 RMK A01 T02740196  RH  062%=      5-min Rain = 0
KLA1 200857Z 14008KT 27/20 A3002 RMK A01 T02740195  RH  062%=      5-min Rain = 0
KLA1 200858Z 13006KT 28/20 A3002 RMK A01 T02750196  RH  062%=      5-min Rain = 0
KLA1 200859Z 14007KT 28/20 A3002 RMK A01 T02750196  RH  062%=      5-min Rain = 0
KLA1 200900Z 13005KT 28/20 A3002 RMK A01 T02750196  RH  062%=      5-min Rain = 0
KLA1 200901Z 14006KT 28/20 A3002 RMK A01 T02750196  RH  062%=      5-min Rain = 0
KLA1 200902Z 14006KT 28/20 A3002 RMK A01 T02750197  RH  062%=      5-min Rain = 0
KLA1 200903Z 14007KT 28/20 A3002 RMK A01 T02750197  RH  063%=      5-min Rain = 0
KLA1 200904Z 13006KT 28/20 A3002 RMK A01 T02750198  RH  063%=      5-min Rain = 0
KLA1 200905Z 13008KT 27/20 A3002 RMK A01 T02740198  RH  063%=      5-min Rain = 0
KLA1 200906Z 14009KT 27/20 A3002 RMK A01 T02740199  RH  063%=      5-min Rain = 0
KLA1 200907Z 13007KT 28/20 A3002 RMK A01 T02750199  RH  063%=      5-min Rain = 0
KLA1 200908Z 13006KT 28/20 A3002 RMK A01 T02760200  RH  063%=      5-min Rain = 0
KLA1 200909Z 13007KT 28/20 A3002 RMK A01 T02760201  RH  064%=      5-min Rain = 0
KLA1 200910Z 13006KT 28/20 A3003 RMK A01 T02750202  RH  064%=      5-min Rain = 0
KLA1 200911Z 13005KT 28/20 A3003 RMK A01 T02750203  RH  065%=      5-min Rain = 0
KLA1 200912Z 13006KT 28/20 A3003 RMK A01 T02750203  RH  065%=      5-min Rain = 0
KLA1 200913Z 14006KT 27/20 A3003 RMK A01 T02740203  RH  065%=      5-min Rain = 0
KLA1 200914Z 14008KT 27/21 A3003 RMK A01 T02740205  RH  066%=      5-min Rain = 0
KLA1 200915Z 14008KT 28/21 A3003 RMK A01 T02750205  RH  066%=      5-min Rain = 0
KLA1 200916Z 14008KT 28/21 A3003 RMK A01 T02750205  RH  066%=      5-min Rain = 0
KLA1 200917Z 14007KT 28/21 A3003 RMK A01 T02750205  RH  066%=      5-min Rain = 0
KLA1 200918Z 14008KT 28/21 A3003 RMK A01 T02750206  RH  066%=      5-min Rain = 0
KLA1 200919Z 14006KT 28/21 A3003 RMK A01 T02750206  RH  066%=      5-min Rain = 0
KLA1 200920Z 13007KT 28/21 A3003 RMK A01 T02750206  RH  066%=      5-min Rain = 0
KLA1 200921Z 14006KT 28/21 A3003 RMK A01 T02750206  RH  066%=      5-min Rain = 0
KLA1 200922Z 14006KT 28/21 A3003 RMK A01 T02750206  RH  066%=      5-min Rain = 0
KLA1 200923Z 14005KT 28/21 A3003 RMK A01 T02750207  RH  067%=      5-min Rain = 0
KLA1 200924Z 14007KT 27/21 A3003 RMK A01 T02740208  RH  067%=      5-min Rain = 0
KLA1 200925Z 14007KT 27/21 A3003 RMK A01 T02740208  RH  067%=      5-min Rain = 0
KLA1 200926Z 14008KT 27/21 A3002 RMK A01 T02740208  RH  067%=      5-min Rain = 0
KLA1 200927Z 13007KT 27/21 A3002 RMK A01 T02740208  RH  067%=      5-min Rain = 0
KLA1 200928Z 14007KT 27/21 A3002 RMK A01 T02740208  RH  067%=      5-min Rain = 0
KLA1 200929Z 14006KT 27/21 A3002 RMK A01 T02740208  RH  067%=      5-min Rain = 0
KLA1 200930Z 14009KT 27/21 A3002 RMK A01 T02740209  RH  067%=      5-min Rain = 0
KLA1 200931Z 13009KT 27/21 A3002 RMK A01 T02740209  RH  068%=      5-min Rain = 0
KLA1 200932Z 14007KT 27/21 A3003 RMK A01 T02740209  RH  068%=      5-min Rain = 0
KLA1 200933Z 13007KT 27/21 A3003 RMK A01 T02740209  RH  068%=      5-min Rain = 0
KLA1 200934Z 14007KT 27/21 A3003 RMK A01 T02740210  RH  068%=      5-min Rain = 0
KLA1 200935Z 13007KT 27/21 A3003 RMK A01 T02740210  RH  068%=      5-min Rain = 0
KLA1 200936Z 14009KT 27/21 A3003 RMK A01 T02740210  RH  068%=      5-min Rain = 0
KLA1 200937Z 14008KT 28/21 A3003 RMK A01 T02750211  RH  068%=      5-min Rain = 0
KLA1 200938Z 14007KT 28/21 A3003 RMK A01 T02750211  RH  068%=      5-min Rain = 0
KLA1 200939Z 14007KT 27/21 A3003 RMK A01 T02740211  RH  068%=      5-min Rain = 0
KLA1 200940Z 14008KT 27/21 A3003 RMK A01 T02740211  RH  069%=      5-min Rain = 0
KLA1 200941Z 14007KT 27/21 A3003 RMK A01 T02740212  RH  069%=      5-min Rain = 0
KLA1 200942Z 13008KT 27/21 A3003 RMK A01 T02740212  RH  069%=      5-min Rain = 0
KLA1 200943Z 14008KT 27/21 A3003 RMK A01 T02730212  RH  069%=      5-min Rain = 0
KLA1 200944Z 14008KT 27/21 A3003 RMK A01 T02730212  RH  069%=      5-min Rain = 0
KLA1 200945Z 14009KT 27/21 A3003 RMK A01 T02740213  RH  070%=      5-min Rain = 0
KLA1 200946Z 14008KT 27/21 A3003 RMK A01 T02730213  RH  070%=      5-min Rain = 0
KLA1 200947Z 14006KT 27/21 A3003 RMK A01 T02730213  RH  070%=      5-min Rain = 0
KLA1 200948Z 14005KT 27/21 A3003 RMK A01 T02730213  RH  070%=      5-min Rain = 0
KLA1 200949Z 14007KT 27/21 A3003 RMK A01 T02720214  RH  070%=      5-min Rain = 0
KLA1 200950Z 15007KT 27/21 A3003 RMK A01 T02720214  RH  070%=      5-min Rain = 0
KLA1 200951Z 15008KT 27/21 A3003 RMK A01 T02730214  RH  070%=      5-min Rain = 0
KLA1 200952Z 14009KT 27/21 A3003 RMK A01 T02730214  RH  070%=      5-min Rain = 0
KLA1 200953Z 13010KT 27/21 A3003 RMK A01 T02720214  RH  071%=      5-min Rain = 0
KLA1 200954Z 14009KT 27/22 A3003 RMK A01 T02730215  RH  071%=      5-min Rain = 0
KLA1 200955Z 14009KT 27/22 A3003 RMK A01 T02730216  RH  071%=      5-min Rain = 0
KLA1 200956Z 15008KT 27/22 A3003 RMK A01 T02730216  RH  071%=      5-min Rain = 0
KLA1 200957Z 15007KT 27/22 A3003 RMK A01 T02730216  RH  071%=      5-min Rain = 0
KLA1 200958Z 15008KT 27/22 A3003 RMK A01 T02720216  RH  071%=      5-min Rain = 0
KLA1 200959Z 14008KT 27/22 A3003 RMK A01 T02720216  RH  071%=      5-min Rain = 0
KLA1 201000Z 14007KT 27/22 A3003 RMK A01 T02710216  RH  072%=      5-min Rain = 0
KLA1 201001Z 15009KT 27/22 A3003 RMK A01 T02710216  RH  072%=      5-min Rain = 0
KLA1 201002Z 15008KT 27/22 A3003 RMK A01 T02720216  RH  072%=      5-min Rain = 0
KLA1 201003Z 15008KT 27/22 A3003 RMK A01 T02710216  RH  072%=      5-min Rain = 0
KLA1 201004Z 15009KT 27/22 A3003 RMK A01 T02710216  RH  072%=      5-min Rain = 0
KLA1 201005Z 16010KT 27/22 A3003 RMK A01 T02710216  RH  072%=      5-min Rain = 0
KLA1 201006Z 15009KT 27/22 A3003 RMK A01 T02710217  RH  072%=      5-min Rain = 0
KLA1 201007Z 15009KT 27/22 A3003 RMK A01 T02710217  RH  072%=      5-min Rain = 0
KLA1 201008Z 15008KT 27/22 A3003 RMK A01 T02710218  RH  073%=      5-min Rain = 0
KLA1 201009Z 14010KT 27/22 A3003 RMK A01 T02710218  RH  073%=      5-min Rain = 0
KLA1 201010Z 14008KT 27/22 A3003 RMK A01 T02710218  RH  073%=      5-min Rain = 0
KLA1 201011Z 14009KT 27/22 A3003 RMK A01 T02710218  RH  073%=      5-min Rain = 0
KLA1 201012Z 14008KT 27/22 A3003 RMK A01 T02700218  RH  073%=      5-min Rain = 0
KLA1 201013Z 14008KT 27/22 A3003 RMK A01 T02700218  RH  073%=      5-min Rain = 0
KLA1 201014Z 14008KT 27/22 A3003 RMK A01 T02700218  RH  073%=      5-min Rain = 0
KLA1 201015Z 14008KT 27/22 A3003 RMK A01 T02700218  RH  073%=      5-min Rain = 0
KLA1 201016Z 14007KT 27/22 A3003 RMK A01 T02700218  RH  073%=      5-min Rain = 0
KLA1 201017Z 15005KT 27/22 A3003 RMK A01 T02700218  RH  073%=      5-min Rain = 0
KLA1 201018Z 14008KT 27/22 A3003 RMK A01 T02690218  RH  074%=      5-min Rain = 0
KLA1 201019Z 14010KT 27/22 A3003 RMK A01 T02690219  RH  074%=      5-min Rain = 0
KLA1 201020Z 14008KT 27/22 A3003 RMK A01 T02690218  RH  074%=      5-min Rain = 0
KLA1 201021Z 14008KT 27/22 A3003 RMK A01 T02690219  RH  074%=      5-min Rain = 0
KLA1 201022Z 14007KT 27/22 A3003 RMK A01 T02690219  RH  074%=      5-min Rain = 0
KLA1 201023Z 14008KT 27/22 A3003 RMK A01 T02690219  RH  074%=      5-min Rain = 0
KLA1 201024Z 14009KT 27/22 A3003 RMK A01 T02690219  RH  074%=      5-min Rain = 0
KLA1 201025Z 14009KT 27/22 A3003 RMK A01 T02690219  RH  074%=      5-min Rain = 0
KLA1 201026Z 14007KT 27/22 A3003 RMK A01 T02690219  RH  074%=      5-min Rain = 0
KLA1 201027Z 13007KT 27/22 A3003 RMK A01 T02680219  RH  074%=      5-min Rain = 0
KLA1 201028Z 13006KT 27/22 A3003 RMK A01 T02680219  RH  075%=      5-min Rain = 0
KLA1 201029Z 13007KT 27/22 A3003 RMK A01 T02680219  RH  075%=      5-min Rain = 0
KLA1 201030Z 13007KT 27/22 A3003 RMK A01 T02670219  RH  075%=      5-min Rain = 0
KLA1 201031Z 13007KT 27/22 A3003 RMK A01 T02670219  RH  075%=      5-min Rain = 0
KLA1 201032Z 13006KT 27/22 A3003 RMK A01 T02670219  RH  075%=      5-min Rain = 0
KLA1 201033Z 13007KT 27/22 A3003 RMK A01 T02670219  RH  075%=      5-min Rain = 0
KLA1 201034Z 13006KT 27/22 A3003 RMK A01 T02660219  RH  075%=      5-min Rain = 0
KLA1 201035Z 13005KT 27/22 A3003 RMK A01 T02660219  RH  075%=      5-min Rain = 0
KLA1 201036Z 14006KT 27/22 A3003 RMK A01 T02660220  RH  076%=      5-min Rain = 0
KLA1 201037Z 14006KT 27/22 A3003 RMK A01 T02650219  RH  076%=      5-min Rain = 0
KLA1 201038Z 13006KT 27/22 A3003 RMK A01 T02650219  RH  076%=      5-min Rain = 0
KLA1 201039Z 13006KT 27/22 A3003 RMK A01 T02650219  RH  076%=      5-min Rain = 0
KLA1 201040Z 13005KT 27/22 A3003 RMK A01 T02650220  RH  076%=      5-min Rain = 0
KLA1 201041Z 13008KT 27/22 A3003 RMK A01 T02650220  RH  076%=      5-min Rain = 0
KLA1 201042Z 13008KT 27/22 A3003 RMK A01 T02650219  RH  076%=      5-min Rain = 0
KLA1 201043Z 13007KT 27/22 A3003 RMK A01 T02650220  RH  076%=      5-min Rain = 0
KLA1 201044Z 14007KT 27/22 A3003 RMK A01 T02650220  RH  076%=      5-min Rain = 0
KLA1 201045Z 14007KT 27/22 A3003 RMK A01 T02650220  RH  076%=      5-min Rain = 0
KLA1 201046Z 14008KT 27/22 A3004 RMK A01 T02650220  RH  076%=      5-min Rain = 0
KLA1 201047Z 14008KT 27/22 A3004 RMK A01 T02650220  RH  076%=      5-min Rain = 0
KLA1 201048Z 14010KT 27/22 A3004 RMK A01 T02650220  RH  076%=      5-min Rain = 0
KLA1 201049Z 14009KT 27/22 A3004 RMK A01 T02650220  RH  076%=      5-min Rain = 0
KLA1 201050Z 15009KT 27/22 A3004 RMK A01 T02660220  RH  076%=      5-min Rain = 0
KLA1 201051Z 14011KT 27/22 A3004 RMK A01 T02650220  RH  076%=      5-min Rain = 0
KLA1 201052Z 15010KT 27/22 A3004 RMK A01 T02660220  RH  076%=      5-min Rain = 0
KLA1 201053Z 14010KT 27/22 A3004 RMK A01 T02660220  RH  076%=      5-min Rain = 0
KLA1 201054Z 15008KT 27/22 A3004 RMK A01 T02660220  RH  076%=      5-min Rain = 0
KLA1 201055Z 15009KT 27/22 A3004 RMK A01 T02660220  RH  076%=      5-min Rain = 0
KLA1 201056Z 15010KT 27/22 A3004 RMK A01 T02660220  RH  076%=      5-min Rain = 0
KLA1 201057Z 15009KT 27/22 A3004 RMK A01 T02660220  RH  076%=      5-min Rain = 0
KLA1 201058Z 15007KT 27/22 A3004 RMK A01 T02660220  RH  076%=      5-min Rain = 0
KLA1 201059Z 14007KT 27/22 A3004 RMK A01 T02650220  RH  076%=      5-min Rain = 0
KLA1 201100Z 14008KT 27/22 A3004 RMK A01 T02650220  RH  076%=      5-min Rain = 0
KLA1 201101Z 14007KT 26/22 A3004 RMK A01 T02640220  RH  077%=      5-min Rain = 0
KLA1 201102Z 15007KT 26/22 A3004 RMK A01 T02640220  RH  077%=      5-min Rain = 0
KLA1 201103Z 14007KT 26/22 A3004 RMK A01 T02640220  RH  077%=      5-min Rain = 0
KLA1 201104Z 14008KT 26/22 A3004 RMK A01 T02640220  RH  077%=      5-min Rain = 0
KLA1 201105Z 14008KT 26/22 A3004 RMK A01 T02640220  RH  077%=      5-min Rain = 0
KLA1 201106Z 14006KT 26/22 A3004 RMK A01 T02630220  RH  077%=      5-min Rain = 0
KLA1 201107Z 13006KT 26/22 A3004 RMK A01 T02630220  RH  077%=      5-min Rain = 0
KLA1 201108Z 13007KT 26/22 A3004 RMK A01 T02630220  RH  077%=      5-min Rain = 0
KLA1 201109Z 14007KT 26/22 A3004 RMK A01 T02630220  RH  077%=      5-min Rain = 0
KLA1 201110Z 15009KT 26/22 A3004 RMK A01 T02620220  RH  078%=      5-min Rain = 0
KLA1 201111Z 14006KT 26/22 A3004 RMK A01 T02620220  RH  078%=      5-min Rain = 0
KLA1 201112Z 15006KT 26/22 A3004 RMK A01 T02620220  RH  077%=      5-min Rain = 0
KLA1 201113Z 13005KT 26/22 A3004 RMK A01 T02620220  RH  078%=      5-min Rain = 0
KLA1 201114Z 13005KT 26/22 A3004 RMK A01 T02620220  RH  078%=      5-min Rain = 0
KLA1 201115Z 14005KT 26/22 A3004 RMK A01 T02610219  RH  078%=      5-min Rain = 0
KLA1 201116Z 13007KT 26/22 A3004 RMK A01 T02610220  RH  078%=      5-min Rain = 0
KLA1 201117Z 13008KT 26/22 A3004 RMK A01 T02610220  RH  078%=      5-min Rain = 0
KLA1 201118Z 14008KT 26/22 A3004 RMK A01 T02610220  RH  078%=      5-min Rain = 0
KLA1 201119Z 13008KT 26/22 A3004 RMK A01 T02610220  RH  078%=      5-min Rain = 0
KLA1 201120Z 13006KT 26/22 A3004 RMK A01 T02610220  RH  078%=      5-min Rain = 0
KLA1 201121Z 14005KT 26/22 A3004 RMK A01 T02610220  RH  078%=      5-min Rain = 0
KLA1 201122Z 14006KT 26/22 A3004 RMK A01 T02610220  RH  078%=      5-min Rain = 0
KLA1 201123Z 14006KT 26/22 A3004 RMK A01 T02610220  RH  078%=      5-min Rain = 0
KLA1 201124Z 14008KT 26/22 A3004 RMK A01 T02600220  RH  078%=      5-min Rain = 0
KLA1 201125Z 14006KT 26/22 A3004 RMK A01 T02600220  RH  078%=      5-min Rain = 0
KLA1 201126Z 13007KT 26/22 A3004 RMK A01 T02600220  RH  078%=      5-min Rain = 0
KLA1 201127Z 14008KT 26/22 A3004 RMK A01 T02600220  RH  078%=      5-min Rain = 0
KLA1 201128Z 14006KT 26/22 A3004 RMK A01 T02610220  RH  078%=      5-min Rain = 0
KLA1 201129Z 14006KT 26/22 A3004 RMK A01 T02600220  RH  078%=      5-min Rain = 0
KLA1 201130Z 13007KT 26/22 A3004 RMK A01 T02600220  RH  079%=      5-min Rain = 0
KLA1 201131Z 14005KT 26/22 A3004 RMK A01 T02590220  RH  079%=      5-min Rain = 0
KLA1 201132Z 13006KT 26/22 A3004 RMK A01 T02600220  RH  079%=      5-min Rain = 0
KLA1 201133Z 14009KT 26/22 A3004 RMK A01 T02590220  RH  079%=      5-min Rain = 0
KLA1 201134Z 13006KT 26/22 A3004 RMK A01 T02590220  RH  079%=      5-min Rain = 0
KLA1 201135Z 13005KT 26/22 A3004 RMK A01 T02600220  RH  079%=      5-min Rain = 0
KLA1 201136Z 13006KT 26/22 A3004 RMK A01 T02590220  RH  079%=      5-min Rain = 0
KLA1 201137Z 14006KT 26/22 A3004 RMK A01 T02590220  RH  079%=      5-min Rain = 0
KLA1 201138Z 13006KT 26/22 A3004 RMK A01 T02590220  RH  079%=      5-min Rain = 0
KLA1 201139Z 13006KT 26/22 A3004 RMK A01 T02590220  RH  079%=      5-min Rain = 0
KLA1 201140Z 13007KT 26/22 A3004 RMK A01 T02590220  RH  079%=      5-min Rain = 0
KLA1 201141Z 13005KT 26/22 A3004 RMK A01 T02580220  RH  079%=      5-min Rain = 0
KLA1 201142Z 13006KT 26/22 A3004 RMK A01 T02580220  RH  079%=      5-min Rain = 0
KLA1 201143Z 13005KT 26/22 A3004 RMK A01 T02580220  RH  079%=      5-min Rain = 0
KLA1 201144Z 13005KT 26/22 A3004 RMK A01 T02570220  RH  080%=      5-min Rain = 0
KLA1 201145Z 14005KT 26/22 A3004 RMK A01 T02570220  RH  080%=      5-min Rain = 0
KLA1 201146Z 13006KT 26/22 A3004 RMK A01 T02560219  RH  080%=      5-min Rain = 0
KLA1 201147Z 14006KT 26/22 A3004 RMK A01 T02560219  RH  080%=      5-min Rain = 0
KLA1 201148Z 14006KT 26/22 A3004 RMK A01 T02570219  RH  080%=      5-min Rain = 0
KLA1 201149Z 13005KT 26/22 A3004 RMK A01 T02560219  RH  080%=      5-min Rain = 0
KLA1 201150Z 13005KT 26/22 A3004 RMK A01 T02560219  RH  080%=      5-min Rain = 0
KLA1 201151Z 13005KT 26/22 A3004 RMK A01 T02560219  RH  080%=      5-min Rain = 0
KLA1 201152Z 13005KT 26/22 A3004 RMK A01 T02560219  RH  080%=      5-min Rain = 0
KLA1 201153Z 13005KT 26/22 A3004 RMK A01 T02550219  RH  080%=      5-min Rain = 0
KLA1 201154Z 13005KT 26/22 A3004 RMK A01 T02560220  RH  081%=      5-min Rain = 0
KLA1 201155Z 13005KT 26/22 A3004 RMK A01 T02550219  RH  081%=      5-min Rain = 0
KLA1 201156Z 13007KT 26/22 A3004 RMK A01 T02560220  RH  081%=      5-min Rain = 0
KLA1 201157Z 13006KT 26/22 A3004 RMK A01 T02550219  RH  080%=      5-min Rain = 0
KLA1 201158Z 12005KT 26/22 A3004 RMK A01 T02550219  RH  080%=      5-min Rain = 0
KLA1 201159Z 13005KT 26/22 A3004 RMK A01 T02550219  RH  080%=      5-min Rain = 0
KLA1 201200Z 13005KT 26/22 A3004 RMK A01 T02550219  RH  081%=      5-min Rain = 0
KLA1 201201Z 13005KT 26/22 A3004 RMK A01 T02550219  RH  081%=      5-min Rain = 0
KLA1 201202Z 14006KT 25/22 A3004 RMK A01 T02540219  RH  081%=      5-min Rain = 0
KLA1 201203Z 13005KT 26/22 A3004 RMK A01 T02550219  RH  081%=      5-min Rain = 0
KLA1 201204Z 13006KT 25/22 A3004 RMK A01 T02540219  RH  081%=      5-min Rain = 0
KLA1 201205Z 13005KT 25/22 A3004 RMK A01 T02540219  RH  081%=      5-min Rain = 0
KLA1 201206Z 13005KT 25/22 A3004 RMK A01 T02540219  RH  081%=      5-min Rain = 0
KLA1 201207Z 13005KT 25/22 A3004 RMK A01 T02540219  RH  081%=      5-min Rain = 0
KLA1 201208Z 13007KT 25/22 A3004 RMK A01 T02530219  RH  081%=      5-min Rain = 0
KLA1 201209Z 13005KT 25/22 A3005 RMK A01 T02530219  RH  081%=      5-min Rain = 0
KLA1 201210Z 13006KT 25/22 A3005 RMK A01 T02530219  RH  081%=      5-min Rain = 0
KLA1 201211Z 13005KT 25/22 A3005 RMK A01 T02530219  RH  081%=      5-min Rain = 0
KLA1 201212Z 12005KT 25/22 A3005 RMK A01 T02530219  RH  081%=      5-min Rain = 0
KLA1 201213Z 13005KT 25/22 A3005 RMK A01 T02530219  RH  081%=      5-min Rain = 0
KLA1 201214Z 13005KT 25/22 A3005 RMK A01 T02530219  RH  081%=      5-min Rain = 0
KLA1 201215Z 13005KT 25/22 A3005 RMK A01 T02530219  RH  082%=      5-min Rain = 0
KLA1 201216Z 12007KT 25/22 A3005 RMK A01 T02530220  RH  082%=      5-min Rain = 0
KLA1 201217Z 13006KT 25/22 A3005 RMK A01 T02530219  RH  082%=      5-min Rain = 0
KLA1 201218Z 13006KT 25/22 A3005 RMK A01 T02540219  RH  081%=      5-min Rain = 0
KLA1 201219Z 13005KT 25/22 A3005 RMK A01 T02540219  RH  081%=      5-min Rain = 0
KLA1 201220Z 13005KT 25/22 A3005 RMK A01 T02540219  RH  081%=      5-min Rain = 0
KLA1 201221Z 13005KT 25/22 A3005 RMK A01 T02540220  RH  081%=      5-min Rain = 0
KLA1 201222Z 13005KT 25/22 A3005 RMK A01 T02530219  RH  082%=      5-min Rain = 0
KLA1 201223Z 13004KT 25/22 A3005 RMK A01 T02530220  RH  082%=      5-min Rain = 0
KLA1 201224Z 13004KT 25/22 A3005 RMK A01 T02530219  RH  082%=      5-min Rain = 0
KLA1 201225Z 13005KT 25/22 A3005 RMK A01 T02520219  RH  082%=      5-min Rain = 0
KLA1 201226Z 13005KT 25/22 A3005 RMK A01 T02520220  RH  082%=      5-min Rain = 0
KLA1 201227Z 13006KT 25/22 A3005 RMK A01 T02530220  RH  082%=      5-min Rain = 0
KLA1 201228Z 12006KT 25/22 A3005 RMK A01 T02520219  RH  082%=      5-min Rain = 0
KLA1 201229Z 12006KT 25/22 A3005 RMK A01 T02520220  RH  082%=      5-min Rain = 0
KLA1 201230Z 12006KT 25/22 A3005 RMK A01 T02520220  RH  082%=      5-min Rain = 0
KLA1 201231Z 12006KT 25/22 A3005 RMK A01 T02520220  RH  082%=      5-min Rain = 0
KLA1 201232Z 13006KT 25/22 A3005 RMK A01 T02520220  RH  082%=      5-min Rain = 0
KLA1 201233Z 12005KT 25/22 A3005 RMK A01 T02520220  RH  082%=      5-min Rain = 0
KLA1 201234Z 12006KT 25/22 A3005 RMK A01 T02530220  RH  082%=      5-min Rain = 0
KLA1 201235Z 12006KT 25/22 A3005 RMK A01 T02530220  RH  082%=      5-min Rain = 0
KLA1 201236Z 13006KT 25/22 A3005 RMK A01 T02530220  RH  082%=      5-min Rain = 0
KLA1 201237Z 13007KT 25/22 A3005 RMK A01 T02530220  RH  082%=      5-min Rain = 0
KLA1 201238Z 13008KT 25/22 A3006 RMK A01 T02530220  RH  082%=      5-min Rain = 0
KLA1 201239Z 13008KT 25/22 A3006 RMK A01 T02540220  RH  081%=      5-min Rain = 0
KLA1 201240Z 13006KT 26/22 A3005 RMK A01 T02550220  RH  081%=      5-min Rain = 0
KLA1 201241Z 12006KT 25/22 A3005 RMK A01 T02540220  RH  081%=      5-min Rain = 0
KLA1 201242Z 12005KT 26/22 A3005 RMK A01 T02550220  RH  081%=      5-min Rain = 0
KLA1 201243Z 12005KT 25/22 A3005 RMK A01 T02540220  RH  081%=      5-min Rain = 0
KLA1 201244Z 13006KT 26/22 A3005 RMK A01 T02550221  RH  082%=      5-min Rain = 0
KLA1 201245Z 12006KT 25/22 A3005 RMK A01 T02540220  RH  082%=      5-min Rain = 0
KLA1 201246Z 12005KT 25/22 A3005 RMK A01 T02540221  RH  082%=      5-min Rain = 0
KLA1 201247Z 12005KT 25/22 A3005 RMK A01 T02540221  RH  082%=      5-min Rain = 0
KLA1 201248Z 12006KT 25/22 A3005 RMK A01 T02540221  RH  082%=      5-min Rain = 0
KLA1 201249Z 12005KT 25/22 A3005 RMK A01 T02540221  RH  082%=      5-min Rain = 0
KLA1 201250Z 12005KT 25/22 A3005 RMK A01 T02540221  RH  082%=      5-min Rain = 0
KLA1 201251Z 13005KT 26/22 A3005 RMK A01 T02550221  RH  082%=      5-min Rain = 0
KLA1 201252Z 13007KT 26/22 A3005 RMK A01 T02550221  RH  081%=      5-min Rain = 0
KLA1 201253Z 13005KT 26/22 A3006 RMK A01 T02550221  RH  081%=      5-min Rain = 0
KLA1 201254Z 13005KT 26/22 A3006 RMK A01 T02560221  RH  081%=      5-min Rain = 0
KLA1 201255Z 12005KT 26/22 A3006 RMK A01 T02560221  RH  081%=      5-min Rain = 0
KLA1 201256Z 12006KT 26/22 A3006 RMK A01 T02570221  RH  081%=      5-min Rain = 0
KLA1 201257Z 13008KT 26/22 A3006 RMK A01 T02570221  RH  081%=      5-min Rain = 0
KLA1 201258Z 13007KT 26/22 A3006 RMK A01 T02580221  RH  080%=      5-min Rain = 0
KLA1 201259Z 13006KT 26/22 A3006 RMK A01 T02580221  RH  080%=      5-min Rain = 0
KLA1 201300Z 12005KT 26/22 A3006 RMK A01 T02590221  RH  080%=      5-min Rain = 0
KLA1 201301Z 12006KT 26/22 A3006 RMK A01 T02590221  RH  080%=      5-min Rain = 0
KLA1 201302Z 13006KT 26/22 A3006 RMK A01 T02590222  RH  080%=      5-min Rain = 0
KLA1 201303Z 13007KT 26/22 A3006 RMK A01 T02590222  RH  080%=      5-min Rain = 0
KLA1 201304Z 12008KT 26/22 A3006 RMK A01 T02600221  RH  079%=      5-min Rain = 0
KLA1 201305Z 12008KT 26/22 A3006 RMK A01 T02600221  RH  079%=      5-min Rain = 0
KLA1 201306Z 13007KT 26/22 A3006 RMK A01 T02600221  RH  079%=      5-min Rain = 0
KLA1 201307Z 12008KT 26/22 A3006 RMK A01 T02600222  RH  079%=      5-min Rain = 0
KLA1 201308Z 12007KT 26/22 A3006 RMK A01 T02610221  RH  079%=      5-min Rain = 0
KLA1 201309Z 14007KT 26/22 A3006 RMK A01 T02610221  RH  079%=      5-min Rain = 0
KLA1 201310Z 13007KT 26/22 A3006 RMK A01 T02610221  RH  079%=      5-min Rain = 0
KLA1 201311Z 12007KT 26/22 A3006 RMK A01 T02610222  RH  079%=      5-min Rain = 0
KLA1 201312Z 13005KT 26/22 A3006 RMK A01 T02610222  RH  079%=      5-min Rain = 0
KLA1 201313Z 13006KT 26/22 A3006 RMK A01 T02620222  RH  079%=      5-min Rain = 0
KLA1 201314Z 13007KT 26/22 A3006 RMK A01 T02630222  RH  078%=      5-min Rain = 0
KLA1 201315Z 14006KT 26/22 A3006 RMK A01 T02630222  RH  078%=      5-min Rain = 0
KLA1 201316Z 13005KT 26/22 A3006 RMK A01 T02630222  RH  078%=      5-min Rain = 0
KLA1 201317Z 13006KT 26/22 A3006 RMK A01 T02640223  RH  078%=      5-min Rain = 0
KLA1 201318Z 13007KT 26/22 A3006 RMK A01 T02640223  RH  078%=      5-min Rain = 0
KLA1 201319Z 14008KT 26/22 A3006 RMK A01 T02640222  RH  078%=      5-min Rain = 0
KLA1 201320Z 13007KT 26/22 A3006 RMK A01 T02640222  RH  078%=      5-min Rain = 0
KLA1 201321Z 13006KT 26/22 A3006 RMK A01 T02640222  RH  078%=      5-min Rain = 0
KLA1 201322Z 13006KT 27/22 A3006 RMK A01 T02650223  RH  078%=      5-min Rain = 0
KLA1 201323Z 13006KT 27/22 A3006 RMK A01 T02650223  RH  078%=      5-min Rain = 0
KLA1 201324Z 13007KT 27/22 A3006 RMK A01 T02650223  RH  077%=      5-min Rain = 0
KLA1 201325Z 13005KT 27/22 A3006 RMK A01 T02660223  RH  077%=      5-min Rain = 0
KLA1 201326Z 13007KT 27/22 A3006 RMK A01 T02660224  RH  077%=      5-min Rain = 0
KLA1 201327Z 13008KT 27/22 A3006 RMK A01 T02670223  RH  077%=      5-min Rain = 0
KLA1 201328Z 13006KT 27/22 A3006 RMK A01 T02670223  RH  077%=      5-min Rain = 0
KLA1 201329Z 12008KT 27/22 A3006 RMK A01 T02670224  RH  077%=      5-min Rain = 0
KLA1 201330Z 13009KT 27/22 A3006 RMK A01 T02670223  RH  077%=      5-min Rain = 0
KLA1 201331Z 13009KT 27/22 A3007 RMK A01 T02670223  RH  077%=      5-min Rain = 0
KLA1 201332Z 14008KT 27/22 A3007 RMK A01 T02670223  RH  077%=      5-min Rain = 0
KLA1 201333Z 14008KT 27/22 A3007 RMK A01 T02670223  RH  077%=      5-min Rain = 0
KLA1 201334Z 14008KT 27/22 A3007 RMK A01 T02680224  RH  077%=      5-min Rain = 0
KLA1 201335Z 12010KT 27/22 A3007 RMK A01 T02680223  RH  076%=      5-min Rain = 0
KLA1 201336Z 12010KT 27/22 A3007 RMK A01 T02680223  RH  076%=      5-min Rain = 0
KLA1 201337Z 12007KT 27/22 A3007 RMK A01 T02680224  RH  076%=      5-min Rain = 0
KLA1 201338Z 13010KT 27/22 A3007 RMK A01 T02690224  RH  076%=      5-min Rain = 0
KLA1 201339Z 14009KT 27/22 A3007 RMK A01 T02690223  RH  076%=      5-min Rain = 0
KLA1 201340Z 14009KT 27/22 A3007 RMK A01 T02690223  RH  076%=      5-min Rain = 0
KLA1 201341Z 13008KT 27/22 A3006 RMK A01 T02690223  RH  076%=      5-min Rain = 0
KLA1 201342Z 14008KT 27/22 A3006 RMK A01 T02690224  RH  076%=      5-min Rain = 0
KLA1 201343Z 14009KT 27/22 A3006 RMK A01 T02690223  RH  075%=      5-min Rain = 0
KLA1 201344Z 14009KT 27/22 A3006 RMK A01 T02700223  RH  076%=      5-min Rain = 0
KLA1 201345Z 13009KT 27/22 A3007 RMK A01 T02700223  RH  076%=      5-min Rain = 0
KLA1 201346Z 13008KT 27/22 A3007 RMK A01 T02700222  RH  075%=      5-min Rain = 0
KLA1 201347Z 13009KT 27/22 A3007 RMK A01 T02700223  RH  075%=      5-min Rain = 0
KLA1 201348Z 14011KT 27/22 A3007 RMK A01 T02700223  RH  075%=      5-min Rain = 0
KLA1 201349Z 14009KT 27/22 A3007 RMK A01 T02710221  RH  074%=      5-min Rain = 0
KLA1 201350Z 13006KT 27/22 A3007 RMK A01 T02710222  RH  075%=      5-min Rain = 0
KLA1 201351Z 14007KT 27/22 A3007 RMK A01 T02720223  RH  075%=      5-min Rain = 0
KLA1 201352Z 14008KT 27/22 A3007 RMK A01 T02720223  RH  074%=      5-min Rain = 0
KLA1 201353Z 15008KT 27/22 A3006 RMK A01 T02720223  RH  074%=      5-min Rain = 0
KLA1 201354Z 14008KT 27/22 A3006 RMK A01 T02730223  RH  074%=      5-min Rain = 0
KLA1 201355Z 13007KT 27/22 A3006 RMK A01 T02730223  RH  074%=      5-min Rain = 0
KLA1 201356Z 13007KT 27/22 A3006 RMK A01 T02740223  RH  074%=      5-min Rain = 0
KLA1 201357Z 14007KT 27/22 A3006 RMK A01 T02740224  RH  074%=      5-min Rain = 0
KLA1 201358Z 13007KT 28/22 A3007 RMK A01 T02750224  RH  074%=      5-min Rain = 0
KLA1 201359Z 13008KT 28/22 A3007 RMK A01 T02760223  RH  073%=      5-min Rain = 0
KLA1 201400Z 14008KT 28/22 A3007 RMK A01 T02760223  RH  073%=      5-min Rain = 0
KLA1 201401Z 14010KT 28/22 A3007 RMK A01 T02760223  RH  073%=      5-min Rain = 0
KLA1 201402Z 14009KT 28/22 A3007 RMK A01 T02760223  RH  073%=      5-min Rain = 0
KLA1 201403Z 14006KT 28/22 A3007 RMK A01 T02750223  RH  073%=      5-min Rain = 0
KLA1 201404Z 14008KT 28/22 A3007 RMK A01 T02760223  RH  073%=      5-min Rain = 0
KLA1 201405Z 14008KT 28/22 A3007 RMK A01 T02760223  RH  073%=      5-min Rain = 0
KLA1 201406Z 13008KT 28/22 A3007 RMK A01 T02770224  RH  073%=      5-min Rain = 0
KLA1 201407Z 13010KT 28/22 A3007 RMK A01 T02780224  RH  072%=      5-min Rain = 0
KLA1 201408Z 13010KT 28/22 A3007 RMK A01 T02770222  RH  072%=      5-min Rain = 0
KLA1 201409Z 13010KT 28/22 A3007 RMK A01 T02770222  RH  072%=      5-min Rain = 0
KLA1 201410Z 13010KT 28/22 A3007 RMK A01 T02760222  RH  072%=      5-min Rain = 0
KLA1 201411Z 13010KT 28/22 A3007 RMK A01 T02760222  RH  073%=      5-min Rain = 0
KLA1 201412Z 14010KT 28/22 A3007 RMK A01 T02760222  RH  072%=      5-min Rain = 0
KLA1 201413Z 13011KT 28/22 A3007 RMK A01 T02760223  RH  073%=      5-min Rain = 0
KLA1 201414Z 14012KT 28/22 A3007 RMK A01 T02770221  RH  072%=      5-min Rain = 0
KLA1 201415Z 14009KT 28/22 A3007 RMK A01 T02770220  RH  071%=      5-min Rain = 0
KLA1 201416Z 15008KT 28/22 A3007 RMK A01 T02770221  RH  071%=      5-min Rain = 0
KLA1 201417Z 15008KT 28/22 A3007 RMK A01 T02780222  RH  071%=      5-min Rain = 0
KLA1 201418Z 15007KT 28/22 A3007 RMK A01 T02790222  RH  071%=      5-min Rain = 0
KLA1 201419Z 15008KT 28/22 A3007 RMK A01 T02800224  RH  071%=      5-min Rain = 0
KLA1 201420Z 13008KT 28/22 A3006 RMK A01 T02820223  RH  070%=      5-min Rain = 0
KLA1 201421Z 14010KT 28/22 A3006 RMK A01 T02830222  RH  070%=      5-min Rain = 0
KLA1 201422Z 14011KT 28/22 A3007 RMK A01 T02820222  RH  070%=      5-min Rain = 0
KLA1 201423Z 14011KT 28/22 A3007 RMK A01 T02810223  RH  071%=      5-min Rain = 0
KLA1 201424Z 14010KT 28/22 A3007 RMK A01 T02800223  RH  071%=      5-min Rain = 0
KLA1 201425Z 14010KT 28/22 A3007 RMK A01 T02800222  RH  070%=      5-min Rain = 0
KLA1 201426Z 15008KT 28/22 A3006 RMK A01 T02800222  RH  070%=      5-min Rain = 0
KLA1 201427Z 15009KT 28/22 A3006 RMK A01 T02810223  RH  071%=      5-min Rain = 0
KLA1 201428Z 16007KT 28/22 A3007 RMK A01 T02820223  RH  070%=      5-min Rain = 0
KLA1 201429Z 16009KT 28/22 A3007 RMK A01 T02830223  RH  070%=      5-min Rain = 0
KLA1 201430Z 14008KT 28/22 A3007 RMK A01 T02830222  RH  070%=      5-min Rain = 0
KLA1 201431Z 13008KT 28/22 A3007 RMK A01 T02830223  RH  070%=      5-min Rain = 0
KLA1 201432Z 12007KT 28/22 A3007 RMK A01 T02840224  RH  070%=      5-min Rain = 0
KLA1 201433Z 12007KT 29/22 A3007 RMK A01 T02850223  RH  069%=      5-min Rain = 0
KLA1 201434Z 12007KT 29/22 A3006 RMK A01 T02850223  RH  069%=      5-min Rain = 0
KLA1 201435Z 14006KT 28/22 A3006 RMK A01 T02840223  RH  069%=      5-min Rain = 0
KLA1 201436Z 13007KT 29/22 A3006 RMK A01 T02850223  RH  069%=      5-min Rain = 0
KLA1 201437Z 13009KT 29/22 A3006 RMK A01 T02860223  RH  069%=      5-min Rain = 0
KLA1 201438Z 13009KT 29/22 A3006 RMK A01 T02860222  RH  068%=      5-min Rain = 0
KLA1 201439Z 12008KT 29/22 A3006 RMK A01 T02850221  RH  069%=      5-min Rain = 0
KLA1 201440Z 12007KT 29/22 A3006 RMK A01 T02850223  RH  069%=      5-min Rain = 0
KLA1 201441Z 15008KT 29/22 A3006 RMK A01 T02850223  RH  069%=      5-min Rain = 0
KLA1 201442Z 13005KT 29/22 A3006 RMK A01 T02860222  RH  068%=      5-min Rain = 0
KLA1 201443Z 15005KT 29/22 A3006 RMK A01 T02860224  RH  069%=      5-min Rain = 0
KLA1 201444Z 14009KT 29/22 A3007 RMK A01 T02870223  RH  068%=      5-min Rain = 0
KLA1 201445Z 13009KT 29/22 A3007 RMK A01 T02880222  RH  067%=      5-min Rain = 0
KLA1 201446Z 13008KT 29/22 A3007 RMK A01 T02880222  RH  067%=      5-min Rain = 0
KLA1 201447Z 14009KT 29/22 A3007 RMK A01 T02890222  RH  067%=      5-min Rain = 0
KLA1 201448Z 14008KT 29/22 A3006 RMK A01 T02890222  RH  067%=      5-min Rain = 0
KLA1 201449Z 12007KT 29/22 A3006 RMK A01 T02890222  RH  067%=      5-min Rain = 0
KLA1 201450Z 13009KT 29/22 A3006 RMK A01 T02890223  RH  067%=      5-min Rain = 0
KLA1 201451Z 15007KT 29/22 A3006 RMK A01 T02890221  RH  067%=      5-min Rain = 0
KLA1 201452Z 15006KT 29/22 A3006 RMK A01 T02890221  RH  067%=      5-min Rain = 0
KLA1 201453Z 13008KT 29/22 A3007 RMK A01 T02880222  RH  067%=      5-min Rain = 0
KLA1 201454Z 13006KT 29/22 A3007 RMK A01 T02880221  RH  067%=      5-min Rain = 0
KLA1 201455Z 13008KT 29/22 A3007 RMK A01 T02890222  RH  067%=      5-min Rain = 0
KLA1 201456Z 12011KT 29/22 A3006 RMK A01 T02900221  RH  066%=      5-min Rain = 0
KLA1 201457Z 13008KT 29/22 A3006 RMK A01 T02900221  RH  066%=      5-min Rain = 0
KLA1 201458Z 13008KT 29/22 A3006 RMK A01 T02900220  RH  066%=      5-min Rain = 0
KLA1 201459Z 14007KT 29/22 A3006 RMK A01 T02900221  RH  066%=      5-min Rain = 0
KLA1 201500Z 13009KT 29/22 A3006 RMK A01 T02910221  RH  066%=      5-min Rain = 0
KLA1 201501Z 13010KT 29/22 A3006 RMK A01 T02910220  RH  065%=      5-min Rain = 0
KLA1 201502Z 14008KT 29/22 A3007 RMK A01 T02900220  RH  066%=      5-min Rain = 0
KLA1 201503Z 13008KT 29/22 A3007 RMK A01 T02900220  RH  066%=      5-min Rain = 0
KLA1 201504Z 13009KT 29/22 A3007 RMK A01 T02900220  RH  066%=      5-min Rain = 0
KLA1 201505Z 14009KT 29/22 A3007 RMK A01 T02910221  RH  066%=      5-min Rain = 0
KLA1 201506Z 13009KT 29/22 A3007 RMK A01 T02920220  RH  065%=      5-min Rain = 0
KLA1 201507Z 14008KT 29/22 A3007 RMK A01 T02920220  RH  065%=      5-min Rain = 0
KLA1 201508Z 13010KT 29/22 A3007 RMK A01 T02920220  RH  065%=      5-min Rain = 0
KLA1 201509Z 13010KT 29/22 A3007 RMK A01 T02920220  RH  065%=      5-min Rain = 0
KLA1 201510Z 12009KT 29/22 A3007 RMK A01 T02920220  RH  065%=      5-min Rain = 0
KLA1 201511Z 13009KT 29/22 A3007 RMK A01 T02920219  RH  065%=      5-min Rain = 0
KLA1 201512Z 13010KT 29/22 A3007 RMK A01 T02940220  RH  065%=      5-min Rain = 0
KLA1 201513Z 12010KT 29/22 A3007 RMK A01 T02940219  RH  064%=      5-min Rain = 0
KLA1 201514Z 13010KT 29/22 A3007 RMK A01 T02930219  RH  064%=      5-min Rain = 0
KLA1 201515Z 12009KT 29/22 A3007 RMK A01 T02930218  RH  064%=      5-min Rain = 0
KLA1 201516Z 13008KT 29/22 A3007 RMK A01 T02940220  RH  064%=      5-min Rain = 0
KLA1 201517Z 14009KT 30/22 A3007 RMK A01 T02970222  RH  064%=      5-min Rain = 0
KLA1 201518Z 15011KT 30/22 A3007 RMK A01 T02990219  RH  062%=      5-min Rain = 0
KLA1 201519Z 14009KT 30/22 A3007 RMK A01 T02990219  RH  062%=      5-min Rain = 0
KLA1 201520Z 12008KT 30/22 A3007 RMK A01 T02980220  RH  063%=      5-min Rain = 0
KLA1 201521Z 12010KT 30/22 A3007 RMK A01 T02970219  RH  063%=      5-min Rain = 0
KLA1 201522Z 14011KT 30/22 A3007 RMK A01 T02960219  RH  063%=      5-min Rain = 0
KLA1 201523Z 13011KT 30/22 A3007 RMK A01 T02960218  RH  063%=      5-min Rain = 0
KLA1 201524Z 13011KT 30/22 A3007 RMK A01 T02960218  RH  063%=      5-min Rain = 0
KLA1 201525Z 13011KT 30/22 A3007 RMK A01 T02960218  RH  063%=      5-min Rain = 0
KLA1 201526Z 13008KT 30/22 A3007 RMK A01 T02970218  RH  063%=      5-min Rain = 0
KLA1 201527Z 13008KT 30/22 A3007 RMK A01 T02990220  RH  063%=      5-min Rain = 0
KLA1 201528Z 13009KT 30/22 A3007 RMK A01 T03010218  RH  061%=      5-min Rain = 0
KLA1 201529Z 14009KT 30/22 A3007 RMK A01 T03010219  RH  061%=      5-min Rain = 0
KLA1 201530Z 13011KT 30/22 A3007 RMK A01 T03020218  RH  061%=      5-min Rain = 0
KLA1 201531Z 14009KT 30/22 A3007 RMK A01 T03010218  RH  061%=      5-min Rain = 0
KLA1 201532Z 15010KT 30/22 A3007 RMK A01 T03020219  RH  061%=      5-min Rain = 0
KLA1 201533Z 15009KT 30/22 A3007 RMK A01 T03010216  RH  060%=      5-min Rain = 0
KLA1 201534Z 14008KT 30/22 A3007 RMK A01 T03010218  RH  061%=      5-min Rain = 0
KLA1 201535Z 15008KT 30/22 A3007 RMK A01 T03010217  RH  061%=      5-min Rain = 0
KLA1 201536Z 15008KT 30/22 A3007 RMK A01 T03000218  RH  061%=      5-min Rain = 0
KLA1 201537Z 15010KT 30/22 A3007 RMK A01 T03000217  RH  061%=      5-min Rain = 0
KLA1 201538Z 14010KT 30/22 A3007 RMK A01 T03020216  RH  060%=      5-min Rain = 0
KLA1 201539Z 13011KT 30/22 A3007 RMK A01 T03030216  RH  060%=      5-min Rain = 0
KLA1 201540Z 12011KT 30/22 A3007 RMK A01 T03030217  RH  060%=      5-min Rain = 0
KLA1 201541Z 13008KT 30/22 A3007 RMK A01 T03030218  RH  060%=      5-min Rain = 0
KLA1 201542Z 14010KT 30/22 A3007 RMK A01 T03030218  RH  060%=      5-min Rain = 0
KLA1 201543Z 14010KT 31/22 A3007 RMK A01 T03050216  RH  059%=      5-min Rain = 0
KLA1 201544Z 15006KT 31/22 A3007 RMK A01 T03050215  RH  059%=      5-min Rain = 0
KLA1 201545Z 14007KT 30/22 A3007 RMK A01 T03040216  RH  059%=      5-min Rain = 0
KLA1 201546Z 14007KT 30/22 A3007 RMK A01 T03040217  RH  060%=      5-min Rain = 0
KLA1 201547Z 14010KT 30/22 A3007 RMK A01 T03040216  RH  059%=      5-min Rain = 0
KLA1 201548Z 14006KT 31/22 A3007 RMK A01 T03060216  RH  059%=      5-min Rain = 0
KLA1 201549Z 15008KT 31/22 A3007 RMK A01 T03080218  RH  059%=      5-min Rain = 0
KLA1 201550Z 16009KT 31/22 A3007 RMK A01 T03110217  RH  058%=      5-min Rain = 0
KLA1 201551Z 14010KT 31/22 A3007 RMK A01 T03110216  RH  057%=      5-min Rain = 0
KLA1 201552Z 14007KT 31/22 A3007 RMK A01 T03090215  RH  057%=      5-min Rain = 0
KLA1 201553Z 13011KT 31/22 A3007 RMK A01 T03080216  RH  058%=      5-min Rain = 0
KLA1 201554Z 13009G15KT 31/22 A3007 RMK A01 T03080215  RH  058%=      5-min Rain = 0
KLA1 201555Z 14012KT 31/22 A3007 RMK A01 T03070216  RH  058%=      5-min Rain = 0
KLA1 201556Z 14010KT 31/22 A3007 RMK A01 T03070216  RH  058%=      5-min Rain = 0
KLA1 201557Z 14008KT 31/22 A3007 RMK A01 T03070216  RH  058%=      5-min Rain = 0
KLA1 201558Z 17007KT 31/22 A3007 RMK A01 T03080216  RH  058%=      5-min Rain = 0
KLA1 201559Z 16009G14KT 31/22 A3007 RMK A01 T03080215  RH  058%=      5-min Rain = 0
KLA1 201600Z 15012KT 31/21 A3007 RMK A01 T03080214  RH  057%=      5-min Rain = 0
KLA1 201601Z 14010KT 31/21 A3007 RMK A01 T03090214  RH  057%=      5-min Rain = 0
KLA1 201602Z 13010KT 31/22 A3007 RMK A01 T03110215  RH  057%=      5-min Rain = 0
KLA1 201603Z 13011KT 31/21 A3007 RMK A01 T03110214  RH  056%=      5-min Rain = 0
KLA1 201604Z 13010KT 31/21 A3007 RMK A01 T03110214  RH  056%=      5-min Rain = 0
KLA1 201605Z 12008KT 31/22 A3007 RMK A01 T03110215  RH  057%=      5-min Rain = 0
KLA1 201606Z 15005KT 31/22 A3007 RMK A01 T03100216  RH  057%=      5-min Rain = 0
KLA1 201607Z 14008KT 31/22 A3007 RMK A01 T03130217  RH  057%=      5-min Rain = 0
KLA1 201608Z 12011KT 32/21 A3007 RMK A01 T03150214  RH  055%=      5-min Rain = 0
KLA1 201609Z 13009KT 32/22 A3008 RMK A01 T03160215  RH  055%=      5-min Rain = 0
KLA1 201610Z 12009KT 32/21 A3008 RMK A01 T03160213  RH  055%=      5-min Rain = 0
KLA1 201611Z 13008KT 32/21 A3008 RMK A01 T03150214  RH  055%=      5-min Rain = 0
KLA1 201612Z 15005KT 31/21 A3007 RMK A01 T03140213  RH  055%=      5-min Rain = 0
KLA1 201613Z 14008KT 31/21 A3007 RMK A01 T03140213  RH  055%=      5-min Rain = 0
KLA1 201614Z 15010KT 31/21 A3007 RMK A01 T03140213  RH  055%=      5-min Rain = 0
KLA1 201615Z 15010KT 31/21 A3007 RMK A01 T03140211  RH  055%=      5-min Rain = 0
KLA1 201616Z 16010KT 31/21 A3007 RMK A01 T03140213  RH  055%=      5-min Rain = 0
KLA1 201617Z 15011KT 31/21 A3007 RMK A01 T03140211  RH  054%=      5-min Rain = 0
KLA1 201618Z 15008KT 31/21 A3007 RMK A01 T03140210  RH  054%=      5-min Rain = 0
KLA1 201619Z 16007KT 31/21 A3007 RMK A01 T03140211  RH  055%=      5-min Rain = 0
KLA1 201620Z 13007KT 31/21 A3007 RMK A01 T03130212  RH  055%=      5-min Rain = 0
KLA1 201621Z 13009KT 31/21 A3007 RMK A01 T03130212  RH  055%=      5-min Rain = 0
KLA1 201622Z 12008G13KT 31/22 A3007 RMK A01 T03140215  RH  056%=      5-min Rain = 0
KLA1 201623Z 13010G15KT 32/21 A3007 RMK A01 T03160213  RH  054%=      5-min Rain = 0
KLA1 201624Z 12010KT 32/21 A3007 RMK A01 T03190212  RH  053%=      5-min Rain = 0
KLA1 201625Z 13009KT 32/21 A3007 RMK A01 T03180210  RH  053%=      5-min Rain = 0
KLA1 201626Z 12009KT 32/21 A3007 RMK A01 T03160212  RH  054%=      5-min Rain = 0
KLA1 201627Z 14009KT 32/21 A3007 RMK A01 T03170213  RH  054%=      5-min Rain = 0
KLA1 201628Z 14009KT 32/21 A3007 RMK A01 T03180213  RH  054%=      5-min Rain = 0
KLA1 201629Z 15009KT 32/21 A3007 RMK A01 T03190213  RH  053%=      5-min Rain = 0
KLA1 201630Z 14009KT 32/21 A3007 RMK A01 T03190212  RH  053%=      5-min Rain = 0
KLA1 201631Z 14009KT 32/21 A3007 RMK A01 T03180212  RH  054%=      5-min Rain = 0
KLA1 201632Z 12008KT 32/21 A3007 RMK A01 T03170213  RH  054%=      5-min Rain = 0
KLA1 201633Z 13007KT 32/21 A3007 RMK A01 T03170212  RH  054%=      5-min Rain = 0
KLA1 201634Z 12007KT 32/21 A3007 RMK A01 T03170212  RH  054%=      5-min Rain = 0
KLA1 201635Z 15007KT 32/21 A3007 RMK A01 T03190214  RH  054%=      5-min Rain = 0
KLA1 201636Z 15010KT 32/21 A3007 RMK A01 T03200212  RH  053%=      5-min Rain = 0
KLA1 201637Z 13006KT 32/21 A3007 RMK A01 T03210214  RH  053%=      5-min Rain = 0
KLA1 201638Z 13009G15KT 32/22 A3007 RMK A01 T03240215  RH  053%=      5-min Rain = 0
KLA1 201639Z 14013KT 33/21 A3008 RMK A01 T03250209  RH  051%=      5-min Rain = 0
KLA1 201640Z 14011KT 32/21 A3008 RMK A01 T03240207  RH  050%=      5-min Rain = 0
KLA1 201641Z 15009KT 32/21 A3008 RMK A01 T03220208  RH  051%=      5-min Rain = 0
KLA1 201642Z 15010KT 32/21 A3008 RMK A01 T03220209  RH  052%=      5-min Rain = 0
KLA1 201643Z 15009KT 32/21 A3008 RMK A01 T03220210  RH  052%=      5-min Rain = 0
KLA1 201644Z 16011KT 32/21 A3008 RMK A01 T03240209  RH  051%=      5-min Rain = 0
KLA1 201645Z 15010KT 32/21 A3008 RMK A01 T03230211  RH  052%=      5-min Rain = 0
KLA1 201646Z 14007KT 32/21 A3008 RMK A01 T03220208  RH  051%=      5-min Rain = 0
KLA1 201647Z 13007KT 32/21 A3008 RMK A01 T03190208  RH  052%=      5-min Rain = 0
KLA1 201648Z 12007KT 32/21 A3008 RMK A01 T03170207  RH  052%=      5-min Rain = 0
KLA1 201649Z 14008KT 32/21 A3008 RMK A01 T03170209  RH  053%=      5-min Rain = 0
KLA1 201650Z 16009KT 32/21 A3008 RMK A01 T03200207  RH  051%=      5-min Rain = 0
KLA1 201651Z 14007G15KT 32/21 A3008 RMK A01 T03220211  RH  052%=      5-min Rain = 0
KLA1 201652Z 14011KT 33/21 A3008 RMK A01 T03260213  RH  051%=      5-min Rain = 0
KLA1 201653Z 15012KT 33/21 A3008 RMK A01 T03280210  RH  050%=      5-min Rain = 0
KLA1 201654Z 14009KT 33/21 A3008 RMK A01 T03260209  RH  050%=      5-min Rain = 0
KLA1 201655Z 13006KT 33/21 A3008 RMK A01 T03250211  RH  051%=      5-min Rain = 0
KLA1 201656Z 15009KT 33/21 A3008 RMK A01 T03260209  RH  050%=      5-min Rain = 0
KLA1 201657Z 15007KT 33/21 A3008 RMK A01 T03250208  RH  050%=      5-min Rain = 0
KLA1 201658Z 15008G14KT 32/21 A3008 RMK A01 T03240210  RH  051%=      5-min Rain = 0
KLA1 201659Z 15011KT 33/21 A3008 RMK A01 T03260207  RH  050%=      5-min Rain = 0
KLA1 201700Z 13011G17KT 33/21 A3008 RMK A01 T03260206  RH  049%=      5-min Rain = 0
KLA1 201701Z 14012KT 33/20 A3008 RMK A01 T03270203  RH  048%=      5-min Rain = 0
KLA1 201702Z 15009KT 33/21 A3008 RMK A01 T03260205  RH  049%=      5-min Rain = 0
KLA1 201703Z 15010KT 33/21 A3008 RMK A01 T03280206  RH  049%=      5-min Rain = 0
KLA1 201704Z 14010KT 33/20 A3008 RMK A01 T03290204  RH  048%=      5-min Rain = 0
KLA1 201705Z 15011KT 33/20 A3008 RMK A01 T03300204  RH  048%=      5-min Rain = 0
KLA1 201706Z 15011KT 33/20 A3008 RMK A01 T03300204  RH  048%=      5-min Rain = 0
KLA1 201707Z 15012KT 33/20 A3008 RMK A01 T03290204  RH  048%=      5-min Rain = 0
KLA1 201708Z 15010KT 33/20 A3008 RMK A01 T03270204  RH  048%=      5-min Rain = 0
KLA1 201709Z 14008KT 33/21 A3008 RMK A01 T03270205  RH  049%=      5-min Rain = 0
KLA1 201710Z 15008KT 33/21 A3008 RMK A01 T03280207  RH  049%=      5-min Rain = 0
KLA1 201711Z 17007KT 33/21 A3008 RMK A01 T03300206  RH  048%=      5-min Rain = 0
KLA1 201712Z 15011KT 33/21 A3008 RMK A01 T03300211  RH  049%=      5-min Rain = 0
KLA1 201713Z 15009KT 33/21 A3008 RMK A01 T03320210  RH  049%=      5-min Rain = 0
KLA1 201714Z 17009KT 33/21 A3008 RMK A01 T03320209  RH  049%=      5-min Rain = 0
KLA1 201715Z 18009KT 33/21 A3007 RMK A01 T03280206  RH  049%=      5-min Rain = 0
KLA1 201716Z 16006KT 33/21 A3007 RMK A01 T03270208  RH  049%=      5-min Rain = 0
KLA1 201717Z 16009KT 33/21 A3007 RMK A01 T03300207  RH  048%=      5-min Rain = 0
KLA1 201718Z 16011KT 33/21 A3007 RMK A01 T03300207  RH  048%=      5-min Rain = 0
KLA1 201719Z 15011KT 33/21 A3007 RMK A01 T03310207  RH  048%=      5-min Rain = 0
KLA1 201720Z 16009KT 33/20 A3007 RMK A01 T03320204  RH  047%=      5-min Rain = 0
KLA1 201721Z 15009KT 33/21 A3007 RMK A01 T03290205  RH  048%=      5-min Rain = 0
KLA1 201722Z 15007KT 33/21 A3007 RMK A01 T03300208  RH  049%=      5-min Rain = 0
KLA1 201723Z 16010KT 33/21 A3007 RMK A01 T03330207  RH  048%=      5-min Rain = 0
KLA1 201724Z 17009KT 33/21 A3007 RMK A01 T03340207  RH  047%=      5-min Rain = 0
KLA1 201725Z 15011KT 33/21 A3007 RMK A01 T03340208  RH  048%=      5-min Rain = 0
KLA1 201726Z 15009KT 34/21 A3007 RMK A01 T03350208  RH  047%=      5-min Rain = 0
KLA1 201727Z 15007KT 34/21 A3007 RMK A01 T03360208  RH  047%=      5-min Rain = 0
KLA1 201728Z 17009KT 34/21 A3007 RMK A01 T03360208  RH  047%=      5-min Rain = 0
KLA1 201729Z 17007KT 33/21 A3007 RMK A01 T03340208  RH  048%=      5-min Rain = 0
KLA1 201730Z 16009KT 33/21 A3007 RMK A01 T03310208  RH  048%=      5-min Rain = 0
KLA1 201731Z 15010KT 33/20 A3007 RMK A01 T03290204  RH  048%=      5-min Rain = 0
KLA1 201732Z 14011KT 33/20 A3007 RMK A01 T03290204  RH  048%=      5-min Rain = 0
KLA1 201733Z 13009KT 33/20 A3007 RMK A01 T03290203  RH  048%=      5-min Rain = 0
KLA1 201734Z 14009KT 33/20 A3007 RMK A01 T03280204  RH  048%=      5-min Rain = 0
KLA1 201735Z 13013KT 33/20 A3007 RMK A01 T03290203  RH  048%=      5-min Rain = 0
KLA1 201736Z 16014KT 33/20 A3007 RMK A01 T03310201  RH  046%=      5-min Rain = 0
KLA1 201737Z 17014KT 33/20 A3007 RMK A01 T03330201  RH  046%=      5-min Rain = 0
KLA1 201738Z 17010KT 33/20 A3007 RMK A01 T03320200  RH  046%=      5-min Rain = 0
KLA1 201739Z 17010KT 33/20 A3007 RMK A01 T03320201  RH  046%=      5-min Rain = 0
KLA1 201740Z 18011KT 33/20 A3007 RMK A01 T03330201  RH  046%=      5-min Rain = 0
KLA1 201741Z 17011KT 33/20 A3007 RMK A01 T03330202  RH  046%=      5-min Rain = 0
KLA1 201742Z 17011G17KT 33/21 A3007 RMK A01 T03340206  RH  047%=      5-min Rain = 0
KLA1 201743Z 16010KT 33/21 A3007 RMK A01 T03330205  RH  047%=      5-min Rain = 0
KLA1 201744Z 15009KT 33/20 A3007 RMK A01 T03310204  RH  047%=      5-min Rain = 0
KLA1 201745Z 17008KT 33/21 A3007 RMK A01 T03310206  RH  048%=      5-min Rain = 0
KLA1 201746Z 16012KT 33/21 A3007 RMK A01 T03340207  RH  047%=      5-min Rain = 0
KLA1 201747Z 16009KT 34/21 A3007 RMK A01 T03350206  RH  047%=      5-min Rain = 0
KLA1 201748Z 15009KT 34/21 A3007 RMK A01 T03350206  RH  047%=      5-min Rain = 0
KLA1 201749Z 13008KT 34/21 A3007 RMK A01 T03350205  RH  047%=      5-min Rain = 0
KLA1 201750Z 14005KT 33/21 A3007 RMK A01 T03340205  RH  047%=      5-min Rain = 0
KLA1 201751Z 13009KT 33/21 A3007 RMK A01 T03340205  RH  047%=      5-min Rain = 0
KLA1 201752Z 15009KT 34/20 A3007 RMK A01 T03350204  RH  046%=      5-min Rain = 0
KLA1 201753Z 17007KT 34/20 A3007 RMK A01 T03350203  RH  046%=      5-min Rain = 0
KLA1 201754Z 17006G11KT 34/21 A3007 RMK A01 T03360207  RH  047%=      5-min Rain = 0
KLA1 201755Z 18008KT 34/20 A3006 RMK A01 T03390203  RH  045%=      5-min Rain = 0
KLA1 201756Z 17007KT 34/20 A3006 RMK A01 T03370204  RH  046%=      5-min Rain = 0
KLA1 201757Z 14009G14KT 34/20 A3006 RMK A01 T03370204  RH  046%=      5-min Rain = 0
KLA1 201758Z 15011KT 34/20 A3006 RMK A01 T03410203  RH  044%=      5-min Rain = 0
KLA1 201759Z 16009KT 34/20 A3006 RMK A01 T03420201  RH  044%=      5-min Rain = 0
KLA1 201800Z 15006KT 34/20 A3006 RMK A01 T03410203  RH  045%=      5-min Rain = 0
KLA1 201801Z 12009KT 34/20 A3006 RMK A01 T03410201  RH  044%=      5-min Rain = 0
KLA1 201802Z 13007KT 34/20 A3006 RMK A01 T03390203  RH  045%=      5-min Rain = 0
KLA1 201803Z 14010G19KT 34/20 A3006 RMK A01 T03370202  RH  045%=      5-min Rain = 0
KLA1 201804Z 12014G19KT 33/20 A3006 RMK A01 T03340202  RH  046%=      5-min Rain = 0
KLA1 201805Z 13012KT 33/20 A3006 RMK A01 T03320202  RH  046%=      5-min Rain = 0
KLA1 201806Z 13013KT 33/20 A3006 RMK A01 T03340202  RH  046%=      5-min Rain = 0
KLA1 201807Z 14014KT 34/20 A3006 RMK A01 T03370201  RH  045%=      5-min Rain = 0
KLA1 201808Z 13013KT 34/20 A3006 RMK A01 T03400203  RH  045%=      5-min Rain = 0
KLA1 201809Z 14010KT 34/20 A3006 RMK A01 T03400201  RH  044%=      5-min Rain = 0
KLA1 201810Z 14009KT 34/20 A3006 RMK A01 T03380201  RH  044%=      5-min Rain = 0
KLA1 201811Z 15008KT 34/20 A3006 RMK A01 T03380200  RH  044%=      5-min Rain = 0
KLA1 201812Z 15007KT 34/20 A3006 RMK A01 T03390200  RH  044%=      5-min Rain = 0
KLA1 201813Z 13007KT 34/20 A3006 RMK A01 T03400201  RH  044%=      5-min Rain = 0
KLA1 201814Z 12008KT 34/20 A3006 RMK A01 T03400198  RH  043%=      5-min Rain = 0
KLA1 201815Z 14010G16KT 34/20 A3006 RMK A01 T03380200  RH  044%=      5-min Rain = 0
KLA1 201816Z 13011KT 34/20 A3006 RMK A01 T03390197  RH  043%=      5-min Rain = 0
KLA1 201817Z 14011KT 34/20 A3006 RMK A01 T03380199  RH  044%=      5-min Rain = 0
KLA1 201818Z 13011KT 34/20 A3006 RMK A01 T03380198  RH  044%=      5-min Rain = 0
KLA1 201819Z 12009KT 34/20 A3006 RMK A01 T03390199  RH  044%=      5-min Rain = 0
KLA1 201820Z 14008KT 34/20 A3006 RMK A01 T03400201  RH  044%=      5-min Rain = 0
KLA1 201821Z 15011KT 34/20 A3006 RMK A01 T03440201  RH  043%=      5-min Rain = 0
KLA1 201822Z 16010KT 34/19 A3005 RMK A01 T03430194  RH  041%=      5-min Rain = 0
KLA1 201823Z 15007KT 34/20 A3005 RMK A01 T03400197  RH  043%=      5-min Rain = 0
KLA1 201824Z 13009KT 34/20 A3006 RMK A01 T03410197  RH  043%=      5-min Rain = 0
KLA1 201825Z 13010KT 34/20 A3006 RMK A01 T03420198  RH  043%=      5-min Rain = 0
KLA1 201826Z 13009KT 34/20 A3006 RMK A01 T03440198  RH  042%=      5-min Rain = 0
KLA1 201827Z 13008KT 34/20 A3005 RMK A01 T03440198  RH  042%=      5-min Rain = 0
KLA1 201828Z 12006KT 34/20 A3005 RMK A01 T03430201  RH  043%=      5-min Rain = 0
KLA1 201829Z 14010KT 35/20 A3006 RMK A01 T03450202  RH  043%=      5-min Rain = 0
KLA1 201830Z 13006KT 34/20 A3005 RMK A01 T03440200  RH  043%=      5-min Rain = 0
KLA1 201831Z 15008KT 34/20 A3005 RMK A01 T03430201  RH  043%=      5-min Rain = 0
KLA1 201832Z 16009KT 34/20 A3005 RMK A01 T03440200  RH  043%=      5-min Rain = 0
KLA1 201833Z 15009KT 34/20 A3005 RMK A01 T03430201  RH  044%=      5-min Rain = 0
KLA1 201834Z 13009KT 34/19 A3005 RMK A01 T03430194  RH  042%=      5-min Rain = 0
KLA1 201835Z 14010KT 35/20 A3005 RMK A01 T03460195  RH  041%=      5-min Rain = 0
KLA1 201836Z 12010KT 35/20 A3005 RMK A01 T03500196  RH  040%=      5-min Rain = 0
KLA1 201837Z 11012KT 35/19 A3005 RMK A01 T03510194  RH  040%=      5-min Rain = 0
KLA1 201838Z 10011KT 35/19 A3005 RMK A01 T03480192  RH  040%=      5-min Rain = 0
KLA1 201839Z 09010KT 35/19 A3005 RMK A01 T03450191  RH  040%=      5-min Rain = 0
KLA1 201840Z 08007KT 34/19 A3005 RMK A01 T03440192  RH  041%=      5-min Rain = 0
KLA1 201841Z 08006KT 35/19 A3005 RMK A01 T03450192  RH  041%=      5-min Rain = 0
KLA1 201842Z 11005KT 35/19 A3005 RMK A01 T03460191  RH  040%=      5-min Rain = 0
KLA1 201843Z 13007KT 35/20 A3005 RMK A01 T03450195  RH  041%=      5-min Rain = 0
KLA1 201844Z 16012KT 35/20 A3005 RMK A01 T03460200  RH  042%=      5-min Rain = 0
KLA1 201845Z 16009KT 35/20 A3005 RMK A01 T03470197  RH  041%=      5-min Rain = 0
KLA1 201846Z 16007KT 35/20 A3005 RMK A01 T03460197  RH  041%=      5-min Rain = 0
KLA1 201847Z 15008KT 35/20 A3005 RMK A01 T03470199  RH  042%=      5-min Rain = 0
KLA1 201848Z 15006KT 35/20 A3005 RMK A01 T03470197  RH  041%=      5-min Rain = 0
KLA1 201849Z 15010KT 35/20 A3005 RMK A01 T03460198  RH  042%=      5-min Rain = 0
KLA1 201850Z 12009KT 35/20 A3005 RMK A01 T03470196  RH  041%=      5-min Rain = 0
KLA1 201851Z 12010KT 35/19 A3005 RMK A01 T03470191  RH  040%=      5-min Rain = 0
KLA1 201852Z 13011G17KT 35/19 A3005 RMK A01 T03450192  RH  040%=      5-min Rain = 0
KLA1 201853Z 12010KT 35/19 A3005 RMK A01 T03460192  RH  040%=      5-min Rain = 0
KLA1 201854Z 09012KT 35/19 A3005 RMK A01 T03480190  RH  040%=      5-min Rain = 0
KLA1 201855Z 10011KT 35/19 A3005 RMK A01 T03470188  RH  039%=      5-min Rain = 0
KLA1 201856Z 11012KT 35/19 A3005 RMK A01 T03460187  RH  039%=      5-min Rain = 0
KLA1 201857Z 11012KT 35/18 A3005 RMK A01 T03470183  RH  038%=      5-min Rain = 0
KLA1 201858Z 11012KT 35/18 A3005 RMK A01 T03470178  RH  037%=      5-min Rain = 0
KLA1 201859Z 11009KT 35/18 A3005 RMK A01 T03470179  RH  037%=      5-min Rain = 0
KLA1 201900Z 11006KT 35/18 A3005 RMK A01 T03470182  RH  038%=      5-min Rain = 0
KLA1 201901Z 10007KT 35/18 A3004 RMK A01 T03470183  RH  038%=      5-min Rain = 0
KLA1 201902Z 11007G13KT 35/19 A3004 RMK A01 T03480189  RH  039%=      5-min Rain = 0
KLA1 201903Z 11010KT 35/19 A3004 RMK A01 T03520191  RH  039%=      5-min Rain = 0
KLA1 201904Z 11009KT 35/19 A3004 RMK A01 T03510192  RH  039%=      5-min Rain = 0
KLA1 201905Z 15010G15KT 35/19 A3004 RMK A01 T03500194  RH  040%=      5-min Rain = 0
KLA1 201906Z 14012KT 35/19 A3004 RMK A01 T03510192  RH  039%=      5-min Rain = 0
KLA1 201907Z 15014KT 35/19 A3004 RMK A01 T03510191  RH  039%=      5-min Rain = 0
KLA1 201908Z 15012KT 35/19 A3004 RMK A01 T03510191  RH  039%=      5-min Rain = 0
KLA1 201909Z 14011G16KT 35/19 A3004 RMK A01 T03510189  RH  039%=      5-min Rain = 0
KLA1 201910Z 15010KT 35/19 A3004 RMK A01 T03500191  RH  039%=      5-min Rain = 0
KLA1 201911Z 15008KT 35/19 A3004 RMK A01 T03510189  RH  039%=      5-min Rain = 0
KLA1 201912Z 15009KT 35/19 A3004 RMK A01 T03520193  RH  039%=      5-min Rain = 0
KLA1 201913Z 14007KT 35/19 A3004 RMK A01 T03530191  RH  039%=      5-min Rain = 0
KLA1 201914Z 10010G15KT 35/19 A3004 RMK A01 T03510190  RH  039%=      5-min Rain = 0
KLA1 201915Z 10011KT 35/19 A3004 RMK A01 T03510188  RH  038%=      5-min Rain = 0
KLA1 201916Z 10009KT 35/19 A3004 RMK A01 T03510189  RH  039%=      5-min Rain = 0
KLA1 201917Z 09007KT 35/19 A3004 RMK A01 T03520190  RH  039%=      5-min Rain = 0
KLA1 201918Z 11008G14KT 35/19 A3004 RMK A01 T03530193  RH  039%=      5-min Rain = 0
KLA1 201919Z 12011KT 36/19 A3004 RMK A01 T03560191  RH  038%=      5-min Rain = 0
KLA1 201920Z 12006KT 35/19 A3004 RMK A01 T03530189  RH  038%=      5-min Rain = 0
KLA1 201921Z 13004KT 35/19 A3004 RMK A01 T03510191  RH  039%=      5-min Rain = 0
KLA1 201922Z 13006KT 35/19 A3004 RMK A01 T03530194  RH  039%=      5-min Rain = 0
KLA1 201923Z 14009KT 36/19 A3004 RMK A01 T03550191  RH  038%=      5-min Rain = 0
KLA1 201924Z 14013KT 35/19 A3004 RMK A01 T03540191  RH  038%=      5-min Rain = 0
KLA1 201925Z 14011KT 35/19 A3004 RMK A01 T03540186  RH  037%=      5-min Rain = 0
KLA1 201926Z 13009KT 35/19 A3004 RMK A01 T03540188  RH  038%=      5-min Rain = 0
KLA1 201927Z 12010KT 35/19 A3004 RMK A01 T03530190  RH  038%=      5-min Rain = 0
KLA1 201928Z 12012G17KT 35/19 A3004 RMK A01 T03520191  RH  039%=      5-min Rain = 0
KLA1 201929Z 10008KT 35/19 A3004 RMK A01 T03520190  RH  039%=      5-min Rain = 0
KLA1 201930Z 12008G13KT 35/19 A3004 RMK A01 T03500192  RH  040%=      5-min Rain = 0
KLA1 201931Z 12006KT 35/19 A3004 RMK A01 T03510189  RH  039%=      5-min Rain = 0
KLA1 201932Z 13009KT 35/19 A3003 RMK A01 T03510192  RH  039%=      5-min Rain = 0
KLA1 201933Z 11008KT 35/19 A3003 RMK A01 T03510190  RH  039%=      5-min Rain = 0
KLA1 201934Z 10007KT 35/19 A3003 RMK A01 T03510188  RH  038%=      5-min Rain = 0
KLA1 201935Z 09008KT 35/19 A3003 RMK A01 T03500188  RH  039%=      5-min Rain = 0
KLA1 201936Z 13012KT 35/19 A3003 RMK A01 T03520188  RH  038%=      5-min Rain = 0
KLA1 201937Z 13012KT 35/19 A3003 RMK A01 T03540186  RH  037%=      5-min Rain = 0
KLA1 201938Z 15011KT 35/19 A3003 RMK A01 T03530187  RH  038%=      5-min Rain = 0
KLA1 201939Z 16010KT 35/19 A3003 RMK A01 T03530187  RH  038%=      5-min Rain = 0
KLA1 201940Z 16014KT 36/19 A3003 RMK A01 T03550188  RH  037%=      5-min Rain = 0
KLA1 201941Z 16014KT 36/19 A3003 RMK A01 T03560189  RH  037%=      5-min Rain = 0
KLA1 201942Z 15010G15KT 36/19 A3003 RMK A01 T03560186  RH  037%=      5-min Rain = 0
KLA1 201943Z 14007KT 35/19 A3003 RMK A01 T03540188  RH  038%=      5-min Rain = 0
KLA1 201944Z 17007KT 36/19 A3003 RMK A01 T03550187  RH  037%=      5-min Rain = 0
KLA1 201945Z 15007KT 36/19 A3003 RMK A01 T03550188  RH  038%=      5-min Rain = 0
KLA1 201946Z 13007KT 36/19 A3003 RMK A01 T03550186  RH  037%=      5-min Rain = 0
KLA1 201947Z 12009G14KT 36/19 A3003 RMK A01 T03550185  RH  037%=      5-min Rain = 0
KLA1 201948Z 12013KT 36/18 A3003 RMK A01 T03550181  RH  036%=      5-min Rain = 0
KLA1 201949Z 11012KT 36/18 A3003 RMK A01 T03550178  RH  035%=      5-min Rain = 0
KLA1 201950Z 10010KT 36/18 A3003 RMK A01 T03550178  RH  035%=      5-min Rain = 0
KLA1 201951Z 11012KT 35/18 A3003 RMK A01 T03530177  RH  035%=      5-min Rain = 0
KLA1 201952Z 12011KT 35/18 A3003 RMK A01 T03540179  RH  036%=      5-min Rain = 0
KLA1 201953Z 12011KT 36/18 A3003 RMK A01 T03560180  RH  036%=      5-min Rain = 0
KLA1 201954Z 12011KT 36/18 A3003 RMK A01 T03570180  RH  035%=      5-min Rain = 0
KLA1 201955Z 12008KT 36/18 A3003 RMK A01 T03550177  RH  035%=      5-min Rain = 0
KLA1 201956Z 12007KT 35/18 A3003 RMK A01 T03530179  RH  036%=      5-min Rain = 0
KLA1 201957Z 12010G15KT 35/18 A3003 RMK A01 T03540182  RH  036%=      5-min Rain = 0
KLA1 201958Z 12013KT 35/18 A3003 RMK A01 T03540181  RH  036%=      5-min Rain = 0
KLA1 201959Z 10011KT 35/18 A3003 RMK A01 T03540180  RH  036%=      5-min Rain = 0
KLA1 202000Z 10012KT 36/18 A3003 RMK A01 T03550179  RH  035%=      5-min Rain = 0
KLA1 202001Z 10009KT 36/18 A3003 RMK A01 T03550179  RH  035%=      5-min Rain = 0
KLA1 202002Z 10010KT 36/18 A3003 RMK A01 T03570181  RH  035%=      5-min Rain = 0
KLA1 202003Z 11015KT 36/18 A3003 RMK A01 T03590176  RH  034%=      5-min Rain = 0
KLA1 202004Z 12016KT 36/18 A3003 RMK A01 T03570176  RH  034%=      5-min Rain = 0
KLA1 202005Z 12011KT 36/18 A3003 RMK A01 T03560180  RH  035%=      5-min Rain = 0
KLA1 202006Z 11009KT 36/18 A3002 RMK A01 T03560182  RH  036%=      5-min Rain = 0
KLA1 202007Z 10010KT 36/18 A3002 RMK A01 T03570181  RH  035%=      5-min Rain = 0
KLA1 202008Z 10010KT 36/18 A3002 RMK A01 T03570181  RH  035%=      5-min Rain = 0
KLA1 202009Z 10010KT 36/18 A3002 RMK A01 T03570179  RH  035%=      5-min Rain = 0
KLA1 202010Z 12008KT 36/18 A3002 RMK A01 T03570177  RH  035%=      5-min Rain = 0
KLA1 202011Z 14008KT 36/17 A3002 RMK A01 T03570174  RH  034%=      5-min Rain = 0
KLA1 202012Z 13010KT 36/18 A3002 RMK A01 T03560175  RH  034%=      5-min Rain = 0
KLA1 202013Z 14010KT 36/18 A3002 RMK A01 T03570175  RH  034%=      5-min Rain = 0
KLA1 202014Z 12011KT 36/18 A3002 RMK A01 T03590175  RH  034%=      5-min Rain = 0
KLA1 202015Z 14011KT 36/18 A3002 RMK A01 T03600177  RH  034%=      5-min Rain = 0
KLA1 202016Z 14010KT 36/17 A3002 RMK A01 T03610172  RH  033%=      5-min Rain = 0
KLA1 202017Z 15009KT 36/17 A3002 RMK A01 T03580169  RH  033%=      5-min Rain = 0
KLA1 202018Z 14008KT 36/17 A3002 RMK A01 T03570169  RH  033%=      5-min Rain = 0
KLA1 202019Z 14009KT 36/18 A3002 RMK A01 T03580175  RH  034%=      5-min Rain = 0
KLA1 202020Z 13009KT 36/17 A3002 RMK A01 T03610173  RH  033%=      5-min Rain = 0
KLA1 202021Z 11011KT 36/18 A3002 RMK A01 T03600176  RH  034%=      5-min Rain = 0
KLA1 202022Z 12010KT 36/18 A3002 RMK A01 T03590176  RH  034%=      5-min Rain = 0
KLA1 202023Z 12009KT 36/18 A3002 RMK A01 T03580175  RH  034%=      5-min Rain = 0
KLA1 202024Z 11007KT 36/18 A3001 RMK A01 T03560177  RH  035%=      5-min Rain = 0
KLA1 202025Z 12006KT 36/17 A3001 RMK A01 T03560173  RH  034%=      5-min Rain = 0
KLA1 202026Z 11007KT 36/18 A3001 RMK A01 T03560179  RH  035%=      5-min Rain = 0
KLA1 202027Z 16011KT 36/18 A3001 RMK A01 T03580176  RH  034%=      5-min Rain = 0
KLA1 202028Z 15010KT 36/18 A3001 RMK A01 T03610176  RH  034%=      5-min Rain = 0
KLA1 202029Z 14012KT 36/18 A3001 RMK A01 T03640175  RH  033%=      5-min Rain = 0
KLA1 202030Z 15010KT 36/17 A3001 RMK A01 T03630170  RH  032%=      5-min Rain = 0
KLA1 202031Z 15010KT 36/17 A3001 RMK A01 T03610170  RH  032%=      5-min Rain = 0
KLA1 202032Z 14012KT 36/17 A3001 RMK A01 T03600168  RH  032%=      5-min Rain = 0
KLA1 202033Z 14011KT 36/17 A3001 RMK A01 T03600168  RH  032%=      5-min Rain = 0
KLA1 202034Z 13009KT 36/17 A3001 RMK A01 T03630173  RH  033%=      5-min Rain = 0
KLA1 202035Z 12007KT 36/17 A3001 RMK A01 T03640169  RH  032%=      5-min Rain = 0
KLA1 202036Z 11008G13KT 36/17 A3001 RMK A01 T03620172  RH  033%=      5-min Rain = 0
KLA1 202037Z 10009KT 36/17 A3001 RMK A01 T03630169  RH  032%=      5-min Rain = 0
KLA1 202038Z 11012KT 36/17 A3001 RMK A01 T03630169  RH  032%=      5-min Rain = 0
KLA1 202039Z 11007KT 36/17 A3001 RMK A01 T03620166  RH  031%=      5-min Rain = 0
KLA1 202040Z 09010KT 36/17 A3001 RMK A01 T03600168  RH  032%=      5-min Rain = 0
KLA1 202041Z 09010KT 36/17 A3001 RMK A01 T03610172  RH  033%=      5-min Rain = 0
KLA1 202042Z 11006KT 36/17 A30 RMK A01 T03620172  RH  033%=      5-min Rain = 0
KLA1 202043Z 14011KT 36/18 A30 RMK A01 T03610176  RH  034%=      5-min Rain = 0
KLA1 202044Z 16008KT 36/17 A30 RMK A01 T03630173  RH  033%=      5-min Rain = 0
KLA1 202045Z 16009KT 36/17 A30 RMK A01 T03630171  RH  032%=      5-min Rain = 0
KLA1 202046Z 14010KT 36/17 A30 RMK A01 T03610174  RH  033%=      5-min Rain = 0
KLA1 202047Z 13007KT 36/18 A30 RMK A01 T03610175  RH  033%=      5-min Rain = 0
KLA1 202048Z 14007KT 36/17 A30 RMK A01 T03610173  RH  033%=      5-min Rain = 0
KLA1 202049Z 12009KT 36/18 A30 RMK A01 T03610176  RH  034%=      5-min Rain = 0
KLA1 202050Z 11009KT 36/18 A30 RMK A01 T03640176  RH  033%=      5-min Rain = 0
KLA1 202051Z 15007KT 37/18 A30 RMK A01 T03660175  RH  033%=      5-min Rain = 0
KLA1 202052Z 15009KT 37/17 A30 RMK A01 T03660174  RH  032%=      5-min Rain = 0
KLA1 202053Z 14010KT 37/18 A30 RMK A01 T03670177  RH  033%=      5-min Rain = 0
KLA1 202054Z 13014KT 37/17 A30 RMK A01 T03680172  RH  032%=      5-min Rain = 0
KLA1 202055Z 12013KT 37/17 A30 RMK A01 T03670169  RH  031%=      5-min Rain = 0
KLA1 202056Z 12010KT 36/17 A30 RMK A01 T03640169  RH  032%=      5-min Rain = 0
KLA1 202057Z 12009KT 36/17 A30 RMK A01 T03640170  RH  032%=      5-min Rain = 0
KLA1 202058Z 11009KT 36/17 A30 RMK A01 T03630168  RH  032%=      5-min Rain = 0
KLA1 202059Z 09005KT 36/17 A30 RMK A01 T03620165  RH  031%=      5-min Rain = 0
KLA1 202100Z 09004KT 36/17 A30 RMK A01 T03610167  RH  032%=      5-min Rain = 0
KLA1 202101Z 08007KT 36/17 A2999 RMK A01 T03610167  RH  032%=      5-min Rain = 0
KLA1 202102Z 11009G16KT 36/17 A2999 RMK A01 T03610170  RH  032%=      5-min Rain = 0
KLA1 202103Z 11011KT 36/17 A30 RMK A01 T03610169  RH  032%=      5-min Rain = 0
KLA1 202104Z 11009KT 36/17 A30 RMK A01 T03600167  RH  032%=      5-min Rain = 0
KLA1 202105Z 11009KT 36/16 A2999 RMK A01 T03590164  RH  032%=      5-min Rain = 0
KLA1 202106Z 12004KT 36/16 A2999 RMK A01 T03590160  RH  031%=      5-min Rain = 0
KLA1 202107Z 12010G15KT 36/17 A2999 RMK A01 T03590166  RH  032%=      5-min Rain = 0
KLA1 202108Z 11009KT 36/17 A2999 RMK A01 T03630167  RH  032%=      5-min Rain = 0
KLA1 202109Z 10009KT 37/17 A2999 RMK A01 T03660166  RH  031%=      5-min Rain = 0
KLA1 202110Z 12009KT 37/17 A2999 RMK A01 T03660166  RH  031%=      5-min Rain = 0
KLA1 202111Z 12012KT 37/17 A2999 RMK A01 T03680165  RH  030%=      5-min Rain = 0
KLA1 202112Z 11011KT 37/16 A2999 RMK A01 T03670162  RH  030%=      5-min Rain = 0
KLA1 202113Z 11009KT 37/16 A2999 RMK A01 T03660162  RH  030%=      5-min Rain = 0
KLA1 202114Z 11008KT 37/16 A2999 RMK A01 T03660160  RH  030%=      5-min Rain = 0
KLA1 202115Z 11004KT 37/16 A2999 RMK A01 T03650162  RH  030%=      5-min Rain = 0
KLA1 202116Z 12007KT 37/16 A2999 RMK A01 T03650164  RH  030%=      5-min Rain = 0
KLA1 202117Z 11010KT 37/17 A2999 RMK A01 T03680167  RH  031%=      5-min Rain = 0
KLA1 202118Z 10010KT 37/16 A2999 RMK A01 T03680161  RH  029%=      5-min Rain = 0
KLA1 202119Z 11007KT 37/16 A2999 RMK A01 T03670164  RH  030%=      5-min Rain = 0
KLA1 202120Z 10004KT 37/17 A2999 RMK A01 T03680166  RH  030%=      5-min Rain = 0
KLA1 202121Z 12006KT 37/17 A2999 RMK A01 T03710166  RH  030%=      5-min Rain = 0
KLA1 202122Z 11010G16KT 37/17 A2999 RMK A01 T03710166  RH  030%=      5-min Rain = 0
KLA1 202123Z 13011KT 37/16 A2999 RMK A01 T03710163  RH  029%=      5-min Rain = 0
KLA1 202124Z 12008KT 37/17 A2999 RMK A01 T03700165  RH  030%=      5-min Rain = 0
KLA1 202125Z 14006KT 37/16 A2999 RMK A01 T03680164  RH  030%=      5-min Rain = 0
KLA1 202126Z 15005KT 37/17 A2999 RMK A01 T03660167  RH  031%=      5-min Rain = 0
KLA1 202127Z 12005KT 37/17 A2999 RMK A01 T03660169  RH  031%=      5-min Rain = 0
KLA1 202128Z 14006KT 37/17 A2999 RMK A01 T03660168  RH  031%=      5-min Rain = 0
KLA1 202129Z 14012KT 37/17 A2999 RMK A01 T03660171  RH  032%=      5-min Rain = 0
KLA1 202130Z 14013KT 37/16 A2999 RMK A01 T03680164  RH  030%=      5-min Rain = 0
KLA1 202131Z 13011KT 37/16 A2999 RMK A01 T03660164  RH  030%=      5-min Rain = 0
KLA1 202132Z 13008KT 37/17 A2999 RMK A01 T03650166  RH  031%=      5-min Rain = 0
KLA1 202133Z 14006KT 37/16 A2999 RMK A01 T03660163  RH  030%=      5-min Rain = 0
KLA1 202134Z 11009KT 37/17 A2999 RMK A01 T03660166  RH  031%=      5-min Rain = 0
KLA1 202135Z 10010KT 37/16 A2999 RMK A01 T03670164  RH  030%=      5-min Rain = 0
KLA1 202136Z 10011KT 37/16 A2999 RMK A01 T03670164  RH  030%=      5-min Rain = 0
KLA1 202137Z 10012KT 37/16 A2999 RMK A01 T03660163  RH  030%=      5-min Rain = 0
KLA1 202138Z 09006G11KT 37/16 A2999 RMK A01 T03650161  RH  030%=      5-min Rain = 0
KLA1 202139Z 11009KT 37/16 A2998 RMK A01 T03650162  RH  030%=      5-min Rain = 0
KLA1 202140Z 12008KT 37/17 A2998 RMK A01 T03660165  RH  031%=      5-min Rain = 0
KLA1 202141Z 13009KT 37/17 A2998 RMK A01 T03670167  RH  031%=      5-min Rain = 0
KLA1 202142Z 14010G15KT 37/17 A2998 RMK A01 T03690169  RH  031%=      5-min Rain = 0
KLA1 202143Z 15009KT 37/17 A2998 RMK A01 T03690168  RH  030%=      5-min Rain = 0
KLA1 202144Z 13009KT 37/17 A2998 RMK A01 T03690167  RH  030%=      5-min Rain = 0
KLA1 202145Z 13010G16KT 37/17 A2998 RMK A01 T03680166  RH  030%=      5-min Rain = 0
KLA1 202146Z 12011G16KT 37/17 A2998 RMK A01 T03670166  RH  031%=      5-min Rain = 0
KLA1 202147Z 11008KT 37/17 A2998 RMK A01 T03650166  RH  031%=      5-min Rain = 0
KLA1 202148Z 10010KT 37/17 A2998 RMK A01 T03650166  RH  031%=      5-min Rain = 0
KLA1 202149Z 10007KT 36/17 A2998 RMK A01 T03640166  RH  031%=      5-min Rain = 0
KLA1 202150Z 10007KT 36/17 A2998 RMK A01 T03630169  RH  032%=      5-min Rain = 0
KLA1 202151Z 11007KT 37/17 A2998 RMK A01 T03650166  RH  031%=      5-min Rain = 0
KLA1 202152Z 10007KT 36/17 A2998 RMK A01 T03640167  RH  031%=      5-min Rain = 0
KLA1 202153Z 13007KT 36/17 A2998 RMK A01 T03630168  RH  032%=      5-min Rain = 0
KLA1 202154Z 14006KT 36/17 A2998 RMK A01 T03640166  RH  031%=      5-min Rain = 0
KLA1 202155Z 14004KT 37/17 A2998 RMK A01 T03660167  RH  031%=      5-min Rain = 0
KLA1 202156Z 12003KT 37/17 A2998 RMK A01 T03670166  RH  031%=      5-min Rain = 0
KLA1 202157Z 13003G8KT 37/17 A2998 RMK A01 T03680170  RH  031%=      5-min Rain = 0
KLA1 202158Z 12011KT 37/17 A2998 RMK A01 T03690167  RH  030%=      5-min Rain = 0
KLA1 202159Z 13015KT 37/17 A2998 RMK A01 T03680167  RH  031%=      5-min Rain = 0
KLA1 202200Z 12011G16KT 37/17 A2998 RMK A01 T03670169  RH  031%=      5-min Rain = 0
KLA1 202201Z 12009KT 37/16 A2998 RMK A01 T03650164  RH  030%=      5-min Rain = 0
KLA1 202202Z 10009KT 36/17 A2998 RMK A01 T03630167  RH  031%=      5-min Rain = 0
KLA1 202203Z 11010KT 36/16 A2998 RMK A01 T03640164  RH  031%=      5-min Rain = 0
KLA1 202204Z 11009KT 36/16 A2998 RMK A01 T03640164  RH  031%=      5-min Rain = 0
KLA1 202205Z 13009KT 36/16 A2998 RMK A01 T03630163  RH  031%=      5-min Rain = 0
KLA1 202206Z 12008KT 36/16 A2998 RMK A01 T03620161  RH  030%=      5-min Rain = 0
KLA1 202207Z 12010KT 36/16 A2998 RMK A01 T03620162  RH  031%=      5-min Rain = 0
KLA1 202208Z 14008KT 36/16 A2998 RMK A01 T03610164  RH  031%=      5-min Rain = 0
KLA1 202209Z 15012KT 36/16 A2998 RMK A01 T03620164  RH  031%=      5-min Rain = 0
KLA1 202210Z 14007KT 36/16 A2998 RMK A01 T03640164  RH  031%=      5-min Rain = 0
KLA1 202211Z 14006KT 36/16 A2998 RMK A01 T03640161  RH  030%=      5-min Rain = 0
KLA1 202212Z 13006KT 36/16 A2998 RMK A01 T03640162  RH  030%=      5-min Rain = 0
KLA1 202213Z 13006KT 36/16 A2998 RMK A01 T03640161  RH  030%=      5-min Rain = 0
KLA1 202214Z 13013KT 36/17 A2998 RMK A01 T03630166  RH  031%=      5-min Rain = 0
KLA1 202215Z 14011KT 36/16 A2998 RMK A01 T03630163  RH  031%=      5-min Rain = 0
KLA1 202216Z 15012KT 36/17 A2998 RMK A01 T03630165  RH  031%=      5-min Rain = 0
KLA1 202217Z 15010KT 36/16 A2998 RMK A01 T03620163  RH  031%=      5-min Rain = 0
KLA1 202218Z 15009KT 36/17 A2998 RMK A01 T03610165  RH  031%=      5-min Rain = 0
KLA1 202219Z 14009KT 36/17 A2998 RMK A01 T03610165  RH  031%=      5-min Rain = 0
KLA1 202220Z 15007KT 36/16 A2998 RMK A01 T03620164  RH  031%=      5-min Rain = 0
KLA1 202221Z 13009KT 36/17 A2998 RMK A01 T03630166  RH  031%=      5-min Rain = 0
KLA1 202222Z 12007KT 37/17 A2998 RMK A01 T03650167  RH  031%=      5-min Rain = 0
KLA1 202223Z 10009KT 37/17 A2998 RMK A01 T03680167  RH  031%=      5-min Rain = 0
KLA1 202224Z 11005KT 37/16 A2998 RMK A01 T03670159  RH  029%=      5-min Rain = 0
KLA1 202225Z 14006KT 36/16 A2998 RMK A01 T03640163  RH  030%=      5-min Rain = 0
KLA1 202226Z 15010KT 37/17 A2998 RMK A01 T03650165  RH  031%=      5-min Rain = 0
KLA1 202227Z 16012KT 37/16 A2998 RMK A01 T03670160  RH  029%=      5-min Rain = 0
KLA1 202228Z 17009KT 37/16 A2998 RMK A01 T03670162  RH  030%=      5-min Rain = 0
KLA1 202229Z 15007KT 37/16 A2998 RMK A01 T03670162  RH  030%=      5-min Rain = 0
KLA1 202230Z 13008KT 37/16 A2998 RMK A01 T03680162  RH  030%=      5-min Rain = 0
KLA1 202231Z 12009KT 37/16 A2998 RMK A01 T03690162  RH  029%=      5-min Rain = 0
KLA1 202232Z 10009KT 37/16 A2998 RMK A01 T03690157  RH  029%=      5-min Rain = 0
KLA1 202233Z 12009KT 37/16 A2998 RMK A01 T03690158  RH  029%=      5-min Rain = 0
KLA1 202234Z 11007KT 37/16 A2998 RMK A01 T03680155  RH  028%=      5-min Rain = 0
KLA1 202235Z 09005KT 37/15 A2998 RMK A01 T03650153  RH  028%=      5-min Rain = 0
KLA1 202236Z 13006KT 37/16 A2998 RMK A01 T03650157  RH  029%=      5-min Rain = 0
KLA1 202237Z 13008KT 37/16 A2998 RMK A01 T03660158  RH  029%=      5-min Rain = 0
KLA1 202238Z 13010G15KT 37/16 A2998 RMK A01 T03670164  RH  030%=      5-min Rain = 0
KLA1 202239Z 12010G15KT 37/17 A2998 RMK A01 T03700166  RH  030%=      5-min Rain = 0
KLA1 202240Z 12013KT 37/16 A2998 RMK A01 T03700164  RH  030%=      5-min Rain = 0
KLA1 202241Z 12011KT 37/16 A2998 RMK A01 T03700163  RH  029%=      5-min Rain = 0
KLA1 202242Z 13011KT 37/16 A2998 RMK A01 T03680161  RH  029%=      5-min Rain = 0
KLA1 202243Z 13010KT 37/16 A2998 RMK A01 T03670163  RH  030%=      5-min Rain = 0
KLA1 202244Z 14010KT 37/16 A2998 RMK A01 T03670164  RH  030%=      5-min Rain = 0
KLA1 202245Z 12008KT 37/16 A2998 RMK A01 T03680162  RH  030%=      5-min Rain = 0
KLA1 202246Z 12006KT 37/16 A2998 RMK A01 T03680163  RH  030%=      5-min Rain = 0
KLA1 202247Z 13010KT 37/16 A2998 RMK A01 T03680161  RH  029%=      5-min Rain = 0
KLA1 202248Z 12009KT 37/16 A2998 RMK A01 T03670162  RH  030%=      5-min Rain = 0
KLA1 202249Z 12008KT 37/16 A2998 RMK A01 T03660162  RH  030%=      5-min Rain = 0
KLA1 202250Z 13007KT 37/16 A2998 RMK A01 T03660163  RH  030%=      5-min Rain = 0
KLA1 202251Z 14005KT 37/16 A2998 RMK A01 T03650163  RH  030%=      5-min Rain = 0
KLA1 202252Z 15008KT 37/16 A2998 RMK A01 T03660161  RH  030%=      5-min Rain = 0
KLA1 202253Z 15008KT 37/16 A2998 RMK A01 T03660162  RH  030%=      5-min Rain = 0
KLA1 202254Z 16006KT 37/16 A2998 RMK A01 T03650161  RH  030%=      5-min Rain = 0
KLA1 202255Z 14009G14KT 37/16 A2998 RMK A01 T03650164  RH  031%=      5-min Rain = 0
KLA1 202256Z 14013G19KT 37/16 A2998 RMK A01 T03660163  RH  030%=      5-min Rain = 0
KLA1 202257Z 13016KT 37/16 A2998 RMK A01 T03670161  RH  030%=      5-min Rain = 0
KLA1 202258Z 12014G19KT 37/16 A2998 RMK A01 T03670161  RH  030%=      5-min Rain = 0
KLA1 202259Z 14012KT 37/16 A2998 RMK A01 T03650161  RH  030%=      5-min Rain = 0
KLA1 202300Z 13013KT 37/16 A2998 RMK A01 T03650160  RH  030%=      5-min Rain = 0
KLA1 202301Z 11013KT 37/16 A2998 RMK A01 T03650160  RH  030%=      5-min Rain = 0
KLA1 202302Z 11012KT 36/16 A2998 RMK A01 T03640160  RH  030%=      5-min Rain = 0
KLA1 202303Z 11009KT 36/16 A2998 RMK A01 T03630161  RH  030%=      5-min Rain = 0
KLA1 202304Z 12006KT 36/17 A2998 RMK A01 T03620165  RH  031%=      5-min Rain = 0
KLA1 202305Z 12007KT 36/16 A2998 RMK A01 T03610164  RH  031%=      5-min Rain = 0
KLA1 202306Z 13006KT 36/16 A2998 RMK A01 T03600164  RH  031%=      5-min Rain = 0
KLA1 202307Z 13006KT 36/17 A2998 RMK A01 T03600167  RH  032%=      5-min Rain = 0
KLA1 202308Z 13009KT 36/16 A2998 RMK A01 T03590163  RH  031%=      5-min Rain = 0
KLA1 202309Z 12009KT 36/16 A2998 RMK A01 T03580163  RH  031%=      5-min Rain = 0
KLA1 202310Z 14007KT 36/16 A2998 RMK A01 T03580161  RH  031%=      5-min Rain = 0
KLA1 202311Z 14009KT 36/17 A2998 RMK A01 T03590166  RH  032%=      5-min Rain = 0
KLA1 202312Z 14012KT 36/16 A2998 RMK A01 T03620161  RH  030%=      5-min Rain = 0
KLA1 202313Z 14014KT 36/16 A2998 RMK A01 T03630158  RH  030%=      5-min Rain = 0
KLA1 202314Z 15012KT 36/16 A2998 RMK A01 T03640159  RH  030%=      5-min Rain = 0
KLA1 202315Z 14011KT 36/16 A2998 RMK A01 T03630158  RH  030%=      5-min Rain = 0
KLA1 202316Z 14013KT 36/16 A2998 RMK A01 T03630159  RH  030%=      5-min Rain = 0
KLA1 202317Z 15014KT 36/16 A2998 RMK A01 T03630160  RH  030%=      5-min Rain = 0
KLA1 202318Z 14013KT 36/16 A2998 RMK A01 T03630160  RH  030%=      5-min Rain = 0
KLA1 202319Z 14010KT 36/16 A2998 RMK A01 T03620159  RH  030%=      5-min Rain = 0
KLA1 202320Z 13010KT 36/16 A2998 RMK A01 T03620159  RH  030%=      5-min Rain = 0
KLA1 202321Z 14009KT 36/16 A2998 RMK A01 T03620160  RH  030%=      5-min Rain = 0
KLA1 202322Z 15012KT 36/16 A2998 RMK A01 T03620163  RH  031%=      5-min Rain = 0
KLA1 202323Z 15009KT 36/16 A2998 RMK A01 T03610163  RH  031%=      5-min Rain = 0
KLA1 202324Z 14008G13KT 36/17 A2998 RMK A01 T03600166  RH  032%=      5-min Rain = 0
KLA1 202325Z 15009KT 36/17 A2998 RMK A01 T03600166  RH  032%=      5-min Rain = 0
KLA1 202326Z 15009KT 36/17 A2998 RMK A01 T03600168  RH  032%=      5-min Rain = 0
KLA1 202327Z 16010KT 36/17 A2997 RMK A01 T03610166  RH  032%=      5-min Rain = 0
KLA1 202328Z 15010KT 36/17 A2998 RMK A01 T03610168  RH  032%=      5-min Rain = 0
KLA1 202329Z 14012KT 36/17 A2998 RMK A01 T03620166  RH  031%=      5-min Rain = 0
KLA1 202330Z 13012KT 36/16 A2998 RMK A01 T03620164  RH  031%=      5-min Rain = 0
KLA1 202331Z 12013KT 36/16 A2998 RMK A01 T03620162  RH  031%=      5-min Rain = 0
KLA1 202332Z 12011KT 36/16 A2998 RMK A01 T03610161  RH  031%=      5-min Rain = 0
KLA1 202333Z 11009G14KT 36/16 A2998 RMK A01 T03590162  RH  031%=      5-min Rain = 0
KLA1 202334Z 12011KT 36/16 A2998 RMK A01 T03600162  RH  031%=      5-min Rain = 0
KLA1 202335Z 12011KT 36/16 A2998 RMK A01 T03600161  RH  031%=      5-min Rain = 0
KLA1 202336Z 12010KT 36/16 A2998 RMK A01 T03600158  RH  030%=      5-min Rain = 0
KLA1 202337Z 12007KT 36/16 A2998 RMK A01 T03580161  RH  031%=      5-min Rain = 0
KLA1 202338Z 13009KT 36/16 A2998 RMK A01 T03580162  RH  031%=      5-min Rain = 0
KLA1 202339Z 14007KT 36/16 A2998 RMK A01 T03590161  RH  031%=      5-min Rain = 0
KLA1 202340Z 15009KT 36/16 A2998 RMK A01 T03590161  RH  031%=      5-min Rain = 0
KLA1 202341Z 15007KT 36/16 A2998 RMK A01 T03570160  RH  031%=      5-min Rain = 0
KLA1 202342Z 16009KT 36/16 A2998 RMK A01 T03550160  RH  031%=      5-min Rain = 0
KLA1 202343Z 15010KT 35/16 A2997 RMK A01 T03540157  RH  031%=      5-min Rain = 0
KLA1 202344Z 16007KT 35/16 A2998 RMK A01 T03520158  RH  032%=      5-min Rain = 0
KLA1 202345Z 15007KT 35/16 A2998 RMK A01 T03520159  RH  032%=      5-min Rain = 0
KLA1 202346Z 15009KT 35/16 A2998 RMK A01 T03520158  RH  032%=      5-min Rain = 0
KLA1 202347Z 13009G14KT 35/16 A2997 RMK A01 T03530158  RH  031%=      5-min Rain = 0
KLA1 202348Z 13008KT 35/16 A2997 RMK A01 T03540159  RH  031%=      5-min Rain = 0
KLA1 202349Z 15011KT 36/16 A2997 RMK A01 T03550160  RH  031%=      5-min Rain = 0
KLA1 202350Z 14011KT 36/16 A2998 RMK A01 T03560161  RH  031%=      5-min Rain = 0
KLA1 202351Z 14008KT 36/16 A2998 RMK A01 T03570162  RH  031%=      5-min Rain = 0
KLA1 202352Z 11009KT 36/16 A2998 RMK A01 T03580163  RH  032%=      5-min Rain = 0
KLA1 202353Z 11010KT 36/16 A2998 RMK A01 T03580159  RH  031%=      5-min Rain = 0
KLA1 202354Z 12011KT 36/16 A2998 RMK A01 T03580157  RH  030%=      5-min Rain = 0
KLA1 202355Z 13011KT 36/16 A2998 RMK A01 T03580155  RH  030%=      5-min Rain = 0
KLA1 202356Z 13010KT 36/16 A2998 RMK A01 T03570156  RH  030%=      5-min Rain = 0
KLA1 202357Z 12012KT 36/16 A2998 RMK A01 T03570159  RH  031%=      5-min Rain = 0
KLA1 202358Z 14013KT 36/16 A2998 RMK A01 T03560163  RH  032%=      5-min Rain = 0
KLA1 202359Z 14013G19KT 36/17 A2998 RMK A01 T03560165  RH  032%=      5-min Rain = 0
KLA1 210000Z 14012KT 36/17 A2998 RMK A01 T03550165  RH  032%=      5-min Rain = 0
KLA1 210001Z 14014KT 36/16 A2998 RMK A01 T03550164  RH  032%=      5-min Rain = 0
KLA1 210002Z 13012KT 35/16 A2998 RMK A01 T03540164  RH  033%=      5-min Rain = 0
KLA1 210003Z 14013KT 35/16 A2998 RMK A01 T03520163  RH  033%=      5-min Rain = 0
KLA1 210004Z 14012KT 35/16 A2998 RMK A01 T03500162  RH  033%=      5-min Rain = 0
KLA1 210005Z 15011KT 35/16 A2998 RMK A01 T03490162  RH  033%=      5-min Rain = 0
KLA1 210006Z 14010KT 35/16 A2998 RMK A01 T03480162  RH  033%=      5-min Rain = 0
KLA1 210007Z 15008G13KT 35/16 A2998 RMK A01 T03480164  RH  033%=      5-min Rain = 0
KLA1 210008Z 15011KT 35/16 A2998 RMK A01 T03470162  RH  033%=      5-min Rain = 0
KLA1 210009Z 15011KT 35/16 A2998 RMK A01 T03460160  RH  033%=      5-min Rain = 0
KLA1 210010Z 14010KT 35/16 A2998 RMK A01 T03460159  RH  033%=      5-min Rain = 0
KLA1 210011Z 15011KT 35/16 A2998 RMK A01 T03450160  RH  033%=      5-min Rain = 0
KLA1 210012Z 15011KT 35/16 A2998 RMK A01 T03450160  RH  033%=      5-min Rain = 0
KLA1 210013Z 16009KT 35/16 A2998 RMK A01 T03450160  RH  033%=      5-min Rain = 0
KLA1 210014Z 16009KT 34/16 A2998 RMK A01 T03440161  RH  033%=      5-min Rain = 0
KLA1 210015Z 16008KT 34/16 A2998 RMK A01 T03440160  RH  033%=      5-min Rain = 0
KLA1 210016Z 16008KT 34/16 A2998 RMK A01 T03440160  RH  033%=      5-min Rain = 0
KLA1 210017Z 16010KT 34/16 A2997 RMK A01 T03440159  RH  033%=      5-min Rain = 0
KLA1 210018Z 16009KT 35/16 A2997 RMK A01 T03450158  RH  033%=      5-min Rain = 0
KLA1 210019Z 15008KT 35/16 A2997 RMK A01 T03460160  RH  033%=      5-min Rain = 0
KLA1 210020Z 14009KT 35/16 A2997 RMK A01 T03470161  RH  033%=      5-min Rain = 0
KLA1 210021Z 15010KT 35/16 A2997 RMK A01 T03470164  RH  034%=      5-min Rain = 0
KLA1 210022Z 14010KT 35/17 A2997 RMK A01 T03470165  RH  034%=      5-min Rain = 0
KLA1 210023Z 14010KT 35/16 A2997 RMK A01 T03470164  RH  034%=      5-min Rain = 0
KLA1 210024Z 14008G13KT 35/17 A2997 RMK A01 T03480165  RH  034%=      5-min Rain = 0
KLA1 210025Z 13009KT 35/17 A2998 RMK A01 T03480166  RH  034%=      5-min Rain = 0
KLA1 210026Z 14008KT 35/17 A2998 RMK A01 T03480167  RH  034%=      5-min Rain = 0
KLA1 210027Z 15009KT 35/17 A2997 RMK A01 T03480166  RH  034%=      5-min Rain = 0
KLA1 210028Z 15010KT 35/17 A2997 RMK A01 T03480165  RH  034%=      5-min Rain = 0
KLA1 210029Z 14011KT 35/17 A2997 RMK A01 T03480166  RH  034%=      5-min Rain = 0
KLA1 210030Z 13010KT 35/17 A2998 RMK A01 T03480166  RH  034%=      5-min Rain = 0
KLA1 210031Z 13010KT 35/17 A2997 RMK A01 T03480166  RH  034%=      5-min Rain = 0
KLA1 210032Z 13010KT 35/17 A2998 RMK A01 T03470166  RH  034%=      5-min Rain = 0
KLA1 210033Z 13012KT 35/17 A2998 RMK A01 T03470165  RH  034%=      5-min Rain = 0
KLA1 210034Z 12010KT 35/17 A2998 RMK A01 T03460165  RH  034%=      5-min Rain = 0
KLA1 210035Z 13008KT 35/17 A2998 RMK A01 T03460166  RH  034%=      5-min Rain = 0
KLA1 210036Z 14010KT 35/17 A2998 RMK A01 T03460167  RH  035%=      5-min Rain = 0
KLA1 210037Z 14011KT 35/17 A2998 RMK A01 T03450166  RH  034%=      5-min Rain = 0
KLA1 210038Z 15011KT 34/17 A2998 RMK A01 T03440165  RH  034%=      5-min Rain = 0
KLA1 210039Z 15013KT 34/17 A2998 RMK A01 T03440165  RH  034%=      5-min Rain = 0
KLA1 210040Z 14013KT 34/16 A2998 RMK A01 T03440164  RH  034%=      5-min Rain = 0
KLA1 210041Z 14011KT 34/16 A2998 RMK A01 T03430164  RH  034%=      5-min Rain = 0
KLA1 210042Z 14010KT 34/17 A2998 RMK A01 T03430165  RH  035%=      5-min Rain = 0
KLA1 210043Z 14009KT 34/17 A2997 RMK A01 T03430166  RH  035%=      5-min Rain = 0
KLA1 210044Z 14011KT 34/17 A2997 RMK A01 T03420165  RH  035%=      5-min Rain = 0
KLA1 210045Z 14012KT 34/16 A2997 RMK A01 T03420163  RH  034%=      5-min Rain = 0
KLA1 210046Z 14011KT 34/16 A2997 RMK A01 T03420161  RH  034%=      5-min Rain = 0
KLA1 210047Z 14010KT 34/16 A2997 RMK A01 T03420162  RH  034%=      5-min Rain = 0
KLA1 210048Z 13010KT 34/16 A2997 RMK A01 T03420163  RH  034%=      5-min Rain = 0
KLA1 210049Z 14009KT 34/16 A2998 RMK A01 T03410163  RH  035%=      5-min Rain = 0
KLA1 210050Z 14009KT 34/16 A2998 RMK A01 T03410164  RH  035%=      5-min Rain = 0
KLA1 210051Z 13009KT 34/16 A2997 RMK A01 T03400163  RH  035%=      5-min Rain = 0
KLA1 210052Z 14011KT 34/16 A2998 RMK A01 T03400162  RH  034%=      5-min Rain = 0
KLA1 210053Z 13008KT 34/16 A2998 RMK A01 T03400161  RH  034%=      5-min Rain = 0
KLA1 210054Z 13007KT 34/16 A2998 RMK A01 T03400163  RH  035%=      5-min Rain = 0
KLA1 210055Z 14008KT 34/16 A2998 RMK A01 T03390163  RH  035%=      5-min Rain = 0
KLA1 210056Z 14008KT 34/16 A2998 RMK A01 T03380163  RH  035%=      5-min Rain = 0
KLA1 210057Z 14009KT 34/16 A2998 RMK A01 T03380162  RH  035%=      5-min Rain = 0
KLA1 210058Z 14008KT 34/16 A2998 RMK A01 T03380162  RH  035%=      5-min Rain = 0
KLA1 210059Z 14008KT 34/16 A2998 RMK A01 T03370163  RH  035%=      5-min Rain = 0
KLA1 210100Z 13009KT 34/16 A2998 RMK A01 T03360163  RH  036%=      5-min Rain = 0
KLA1 210101Z 14008KT 34/16 A2998 RMK A01 T03360163  RH  036%=      5-min Rain = 0
KLA1 210102Z 13007KT 34/16 A2998 RMK A01 T03350163  RH  036%=      5-min Rain = 0
KLA1 210103Z 13008KT 34/16 A2998 RMK A01 T03350163  RH  036%=      5-min Rain = 0
KLA1 210104Z 13009KT 34/16 A2998 RMK A01 T03350163  RH  036%=      5-min Rain = 0
KLA1 210105Z 13008KT 33/16 A2998 RMK A01 T03340163  RH  036%=      5-min Rain = 0
KLA1 210106Z 14008KT 33/16 A2998 RMK A01 T03340163  RH  036%=      5-min Rain = 0
KLA1 210107Z 14007KT 33/16 A2998 RMK A01 T03340163  RH  036%=      5-min Rain = 0
KLA1 210108Z 13007KT 33/16 A2998 RMK A01 T03330164  RH  036%=      5-min Rain = 0
KLA1 210109Z 14007KT 33/16 A2998 RMK A01 T03330163  RH  036%=      5-min Rain = 0
KLA1 210110Z 14006KT 33/16 A2998 RMK A01 T03320163  RH  036%=      5-min Rain = 0
KLA1 210111Z 15007KT 33/16 A2998 RMK A01 T03310164  RH  037%=      5-min Rain = 0
KLA1 210112Z 15008KT 33/16 A2998 RMK A01 T03310164  RH  037%=      5-min Rain = 0
KLA1 210113Z 15010KT 33/16 A2998 RMK A01 T03300163  RH  037%=      5-min Rain = 0
KLA1 210114Z 16009KT 33/16 A2998 RMK A01 T03310162  RH  036%=      5-min Rain = 0
KLA1 210115Z 15009KT 33/16 A2998 RMK A01 T03310163  RH  037%=      5-min Rain = 0
KLA1 210116Z 15009KT 33/16 A2998 RMK A01 T03310163  RH  037%=      5-min Rain = 0
KLA1 210117Z 15007KT 33/16 A2998 RMK A01 T03310163  RH  037%=      5-min Rain = 0
KLA1 210118Z 15007KT 33/16 A2998 RMK A01 T03310164  RH  037%=      5-min Rain = 0
KLA1 210119Z 15008KT 33/16 A2998 RMK A01 T03300164  RH  037%=      5-min Rain = 0
KLA1 210120Z 15008KT 33/16 A2998 RMK A01 T03290164  RH  037%=      5-min Rain = 0
KLA1 210121Z 14006KT 33/17 A2998 RMK A01 T03290165  RH  037%=      5-min Rain = 0
KLA1 210122Z 14007KT 33/17 A2998 RMK A01 T03280165  RH  038%=      5-min Rain = 0
KLA1 210123Z 14010KT 33/16 A2999 RMK A01 T03280164  RH  038%=      5-min Rain = 0
KLA1 210124Z 15008KT 33/16 A2998 RMK A01 T03280164  RH  037%=      5-min Rain = 0
KLA1 210125Z 15008KT 33/17 A2999 RMK A01 T03290166  RH  038%=      5-min Rain = 0
KLA1 210126Z 15010KT 33/17 A2998 RMK A01 T03280165  RH  038%=      5-min Rain = 0
KLA1 210127Z 15010KT 33/17 A2998 RMK A01 T03280165  RH  038%=      5-min Rain = 0
KLA1 210128Z 15008KT 33/17 A2999 RMK A01 T03280165  RH  038%=      5-min Rain = 0
KLA1 210129Z 15009KT 33/17 A2999 RMK A01 T03280165  RH  038%=      5-min Rain = 0
KLA1 210130Z 15010KT 33/17 A2999 RMK A01 T03280165  RH  038%=      5-min Rain = 0
KLA1 210131Z 15010KT 33/17 A2999 RMK A01 T03280165  RH  038%=      5-min Rain = 0
KLA1 210132Z 14007KT 33/17 A2999 RMK A01 T03280165  RH  038%=      5-min Rain = 0
KLA1 210133Z 14009KT 33/17 A2999 RMK A01 T03270166  RH  038%=      5-min Rain = 0
KLA1 210134Z 14008KT 33/17 A2999 RMK A01 T03270165  RH  038%=      5-min Rain = 0
KLA1 210135Z 15010KT 33/17 A2999 RMK A01 T03260165  RH  038%=      5-min Rain = 0
KLA1 210136Z 15008G13KT 33/17 A2999 RMK A01 T03260165  RH  038%=      5-min Rain = 0
KLA1 210137Z 15010KT 33/17 A2999 RMK A01 T03260165  RH  038%=      5-min Rain = 0
KLA1 210138Z 15010KT 33/16 A2999 RMK A01 T03260164  RH  038%=      5-min Rain = 0
KLA1 210139Z 15009KT 33/16 A2999 RMK A01 T03270164  RH  038%=      5-min Rain = 0
KLA1 210140Z 15010KT 33/16 A2999 RMK A01 T03270164  RH  038%=      5-min Rain = 0
KLA1 210141Z 15011KT 33/16 A2999 RMK A01 T03270164  RH  038%=      5-min Rain = 0
KLA1 210142Z 15012KT 33/16 A2999 RMK A01 T03260164  RH  038%=      5-min Rain = 0
KLA1 210143Z 15011KT 33/16 A2999 RMK A01 T03270163  RH  038%=      5-min Rain = 0
KLA1 210144Z 15011KT 33/16 A2999 RMK A01 T03270164  RH  038%=      5-min Rain = 0
KLA1 210145Z 15009KT 33/16 A2999 RMK A01 T03270164  RH  038%=      5-min Rain = 0
KLA1 210146Z 15009KT 33/16 A2999 RMK A01 T03270164  RH  038%=      5-min Rain = 0
KLA1 210147Z 15007KT 33/16 A2999 RMK A01 T03260164  RH  038%=      5-min Rain = 0
KLA1 210148Z 15009KT 33/16 A2999 RMK A01 T03250164  RH  038%=      5-min Rain = 0
KLA1 210149Z 15010KT 33/16 A2999 RMK A01 T03250164  RH  038%=      5-min Rain = 0
KLA1 210150Z 15008KT 32/16 A2999 RMK A01 T03240164  RH  038%=      5-min Rain = 0
KLA1 210151Z 15007KT 32/16 A2999 RMK A01 T03240164  RH  038%=      5-min Rain = 0
KLA1 210152Z 15009KT 32/16 A2999 RMK A01 T03240164  RH  038%=      5-min Rain = 0
KLA1 210153Z 15010KT 32/16 A2999 RMK A01 T03230163  RH  038%=      5-min Rain = 0
KLA1 210154Z 15009KT 32/16 A2999 RMK A01 T03240163  RH  038%=      5-min Rain = 0
KLA1 210155Z 15008KT 32/16 A2999 RMK A01 T03240163  RH  038%=      5-min Rain = 0
KLA1 210156Z 15007KT 32/16 A2999 RMK A01 T03240164  RH  038%=      5-min Rain = 0
KLA1 210157Z 15008KT 32/16 A2999 RMK A01 T03230164  RH  038%=      5-min Rain = 0
KLA1 210158Z 15007KT 32/16 A2999 RMK A01 T03220163  RH  039%=      5-min Rain = 0
KLA1 210159Z 15008KT 32/16 A2999 RMK A01 T03220164  RH  039%=      5-min Rain = 0
KLA1 210200Z 15007KT 32/16 A2999 RMK A01 T03220164  RH  039%=      5-min Rain = 0
KLA1 210201Z 15006KT 32/16 A2999 RMK A01 T03220164  RH  039%=      5-min Rain = 0
KLA1 210202Z 15006KT 32/16 A2999 RMK A01 T03210164  RH  039%=      5-min Rain = 0
KLA1 210203Z 15006KT 32/16 A2999 RMK A01 T03200164  RH  039%=      5-min Rain = 0
KLA1 210204Z 15008KT 32/16 A2999 RMK A01 T03200164  RH  039%=      5-min Rain = 0
KLA1 210205Z 15006KT 32/16 A2999 RMK A01 T03200164  RH  039%=      5-min Rain = 0
KLA1 210206Z 15006KT 32/16 A2999 RMK A01 T03190164  RH  039%=      5-min Rain = 0
KLA1 210207Z 14007KT 32/16 A30 RMK A01 T03190164  RH  039%=      5-min Rain = 0
KLA1 210208Z 14007KT 32/16 A30 RMK A01 T03180164  RH  039%=      5-min Rain = 0
KLA1 210209Z 14005KT 32/16 A30 RMK A01 T03190164  RH  040%=      5-min Rain = 0
KLA1 210210Z 14006KT 32/16 A30 RMK A01 T03180164  RH  040%=      5-min Rain = 0
KLA1 210211Z 14005KT 32/16 A30 RMK A01 T03170164  RH  040%=      5-min Rain = 0
KLA1 210212Z 14005KT 32/17 A30 RMK A01 T03160165  RH  040%=      5-min Rain = 0
KLA1 210213Z 13005KT 32/17 A30 RMK A01 T03160165  RH  040%=      5-min Rain = 0
KLA1 210214Z 13005KT 32/17 A30 RMK A01 T03150165  RH  041%=      5-min Rain = 0
KLA1 210215Z 13005KT 31/17 A30 RMK A01 T03140165  RH  041%=      5-min Rain = 0
KLA1 210216Z 13004KT 31/17 A30 RMK A01 T03130166  RH  041%=      5-min Rain = 0
KLA1 210217Z 13005KT 31/17 A30 RMK A01 T03120165  RH  041%=      5-min Rain = 0
KLA1 210218Z 13005KT 31/17 A30 RMK A01 T03120165  RH  041%=      5-min Rain = 0
KLA1 210219Z 13004KT 31/17 A30 RMK A01 T03110165  RH  041%=      5-min Rain = 0
KLA1 210220Z 14004KT 31/17 A30 RMK A01 T03110166  RH  042%=      5-min Rain = 0
KLA1 210221Z 14005KT 31/17 A30 RMK A01 T03100166  RH  042%=      5-min Rain = 0
KLA1 210222Z 14005KT 31/17 A30 RMK A01 T03100166  RH  042%=      5-min Rain = 0
KLA1 210223Z 14004KT 31/17 A30 RMK A01 T03090166  RH  042%=      5-min Rain = 0
KLA1 210224Z 14005KT 31/17 A30 RMK A01 T03090166  RH  042%=      5-min Rain = 0
KLA1 210225Z 14005KT 31/17 A30 RMK A01 T03080166  RH  042%=      5-min Rain = 0
KLA1 210226Z 14005KT 31/17 A30 RMK A01 T03080166  RH  042%=      5-min Rain = 0
KLA1 210227Z 14005KT 31/17 A30 RMK A01 T03070166  RH  043%=      5-min Rain = 0
KLA1 210228Z 14004KT 31/17 A30 RMK A01 T03070166  RH  043%=      5-min Rain = 0
KLA1 210229Z 13005KT 31/17 A30 RMK A01 T03070166  RH  043%=      5-min Rain = 0
KLA1 210230Z 14006KT 31/17 A30 RMK A01 T03070166  RH  043%=      5-min Rain = 0
KLA1 210231Z 13006KT 31/17 A30 RMK A01 T03070165  RH  043%=      5-min Rain = 0
KLA1 210232Z 14006KT 31/16 A30 RMK A01 T03070164  RH  042%=      5-min Rain = 0
KLA1 210233Z 14005KT 31/16 A30 RMK A01 T03070164  RH  042%=      5-min Rain = 0
KLA1 210234Z 13005KT 31/16 A30 RMK A01 T03070164  RH  042%=      5-min Rain = 0
KLA1 210235Z 14005KT 31/16 A30 RMK A01 T03070164  RH  042%=      5-min Rain = 0
KLA1 210236Z 14006KT 31/16 A30 RMK A01 T03070164  RH  042%=      5-min Rain = 0
KLA1 210237Z 13006KT 31/16 A30 RMK A01 T03070163  RH  042%=      5-min Rain = 0
KLA1 210238Z 13005KT 31/16 A30 RMK A01 T03070163  RH  042%=      5-min Rain = 0
KLA1 210239Z 13006KT 31/16 A30 RMK A01 T03070163  RH  042%=      5-min Rain = 0
KLA1 210240Z 14006KT 31/16 A30 RMK A01 T03070163  RH  042%=      5-min Rain = 0
KLA1 210241Z 14006KT 31/16 A30 RMK A01 T03070163  RH  042%=      5-min Rain = 0
KLA1 210242Z 13005KT 31/16 A3001 RMK A01 T03070163  RH  042%=      5-min Rain = 0
KLA1 210243Z 13005KT 31/16 A3001 RMK A01 T03070164  RH  042%=      5-min Rain = 0
KLA1 210244Z 13005KT 31/16 A3001 RMK A01 T03070164  RH  042%=      5-min Rain = 0
KLA1 210245Z 13005KT 31/16 A3001 RMK A01 T03060164  RH  042%=      5-min Rain = 0
KLA1 210246Z 13005KT 31/16 A3001 RMK A01 T03060164  RH  042%=      5-min Rain = 0
KLA1 210247Z 13005KT 31/16 A3001 RMK A01 T03050163  RH  042%=      5-min Rain = 0
KLA1 210248Z 13006KT 31/16 A3001 RMK A01 T03050163  RH  042%=      5-min Rain = 0
KLA1 210249Z 13005KT 31/16 A3001 RMK A01 T03050163  RH  042%=      5-min Rain = 0
KLA1 210250Z 13006KT 31/16 A3001 RMK A01 T03050163  RH  042%=      5-min Rain = 0
KLA1 210251Z 13005KT 31/16 A3001 RMK A01 T03050163  RH  042%=      5-min Rain = 0
KLA1 210252Z 13005KT 31/16 A3001 RMK A01 T03050163  RH  042%=      5-min Rain = 0
KLA1 210253Z 13005KT 30/16 A3001 RMK A01 T03040164  RH  043%=      5-min Rain = 0
KLA1 210254Z 13005KT 30/16 A3001 RMK A01 T03040163  RH  043%=      5-min Rain = 0
KLA1 210255Z 13005KT 30/16 A3001 RMK A01 T03040163  RH  043%=      5-min Rain = 0
KLA1 210256Z 14005KT 30/16 A3001 RMK A01 T03030163  RH  043%=      5-min Rain = 0
KLA1 210257Z 14006KT 30/16 A3001 RMK A01 T03030163  RH  043%=      5-min Rain = 0
KLA1 210258Z 13005KT 30/16 A3001 RMK A01 T03030162  RH  043%=      5-min Rain = 0
KLA1 210259Z 13005KT 30/16 A3001 RMK A01 T03030163  RH  043%=      5-min Rain = 0
KLA1 210300Z 13005KT 30/16 A3001 RMK A01 T03020163  RH  043%=      5-min Rain = 0
KLA1 210301Z 14005KT 30/16 A3002 RMK A01 T03020163  RH  043%=      5-min Rain = 0
KLA1 210302Z 13005KT 30/16 A3002 RMK A01 T03020162  RH  043%=      5-min Rain = 0
KLA1 210303Z 13005KT 30/16 A3002 RMK A01 T03010162  RH  043%=      5-min Rain = 0
KLA1 210304Z 13005KT 30/16 A3002 RMK A01 T03010162  RH  043%=      5-min Rain = 0
KLA1 210305Z 13006KT 30/16 A3002 RMK A01 T03010162  RH  043%=      5-min Rain = 0
KLA1 210306Z 13005KT 30/16 A3002 RMK A01 T03010161  RH  043%=      5-min Rain = 0
KLA1 210307Z 13006KT 30/16 A3002 RMK A01 T03020161  RH  043%=      5-min Rain = 0
KLA1 210308Z 13005KT 30/16 A3002 RMK A01 T03020162  RH  043%=      5-min Rain = 0
KLA1 210309Z 13005KT 30/16 A3002 RMK A01 T03020162  RH  043%=      5-min Rain = 0
KLA1 210310Z 14005KT 30/16 A3002 RMK A01 T03010162  RH  043%=      5-min Rain = 0
KLA1 210311Z 13005KT 30/16 A3002 RMK A01 T03010162  RH  043%=      5-min Rain = 0
KLA1 210312Z 13004KT 30/16 A3002 RMK A01 T03010162  RH  043%=      5-min Rain = 0
KLA1 210313Z 13004KT 30/16 A3002 RMK A01 T03000162  RH  043%=      5-min Rain = 0
KLA1 210314Z 12004KT 30/16 A3002 RMK A01 T03000162  RH  043%=      5-min Rain = 0
KLA1 210315Z 13004KT 30/16 A3002 RMK A01 T02990162  RH  044%=      5-min Rain = 0
KLA1 210316Z 13004KT 30/16 A3002 RMK A01 T02990162  RH  044%=      5-min Rain = 0
KLA1 210317Z 12004KT 30/16 A3002 RMK A01 T02990162  RH  044%=      5-min Rain = 0
KLA1 210318Z 12004KT 30/16 A3002 RMK A01 T02980163  RH  044%=      5-min Rain = 0
KLA1 210319Z 12005KT 30/16 A3002 RMK A01 T02970162  RH  044%=      5-min Rain = 0
KLA1 210320Z 12004KT 30/16 A3002 RMK A01 T02970162  RH  044%=      5-min Rain = 0
KLA1 210321Z 13005KT 30/16 A3002 RMK A01 T02970162  RH  044%=      5-min Rain = 0
KLA1 210322Z 13005KT 30/16 A3002 RMK A01 T02970162  RH  044%=      5-min Rain = 0
KLA1 210323Z 13004KT 30/16 A3002 RMK A01 T02970161  RH  044%=      5-min Rain = 0
KLA1 210324Z 13005KT 30/16 A3002 RMK A01 T02970161  RH  044%=      5-min Rain = 0
KLA1 210325Z 13004KT 30/16 A3002 RMK A01 T02970161  RH  044%=      5-min Rain = 0
KLA1 210326Z 13004KT 30/16 A3002 RMK A01 T02970161  RH  044%=      5-min Rain = 0
KLA1 210327Z 13004KT 30/16 A3002 RMK A01 T02970161  RH  044%=      5-min Rain = 0
KLA1 210328Z 13005KT 30/16 A3002 RMK A01 T02960161  RH  044%=      5-min Rain = 0
KLA1 210329Z 12004KT 30/16 A3002 RMK A01 T02960161  RH  044%=      5-min Rain = 0
KLA1 210330Z 13004KT 30/16 A3002 RMK A01 T02960162  RH  044%=      5-min Rain = 0
KLA1 210331Z 13004KT 30/16 A3002 RMK A01 T02950162  RH  045%=      5-min Rain = 0
KLA1 210332Z 13004KT 30/16 A3002 RMK A01 T02950161  RH  044%=      5-min Rain = 0
KLA1 210333Z 13004KT 30/16 A3002 RMK A01 T02950162  RH  045%=      5-min Rain = 0
KLA1 210334Z 13004KT 30/16 A3002 RMK A01 T02950161  RH  045%=      5-min Rain = 0
KLA1 210335Z 13005KT 30/16 A3002 RMK A01 T02950161  RH  044%=      5-min Rain = 0
KLA1 210336Z 13004KT 30/16 A3003 RMK A01 T02950161  RH  044%=      5-min Rain = 0
KLA1 210337Z 13004KT 30/16 A3003 RMK A01 T02950160  RH  044%=      5-min Rain = 0
KLA1 210338Z 13004KT 29/16 A3003 RMK A01 T02940160  RH  044%=      5-min Rain = 0
KLA1 210339Z 13004KT 29/16 A3003 RMK A01 T02940161  RH  044%=      5-min Rain = 0
KLA1 210340Z 13004KT 29/16 A3003 RMK A01 T02940161  RH  044%=      5-min Rain = 0
KLA1 210341Z 12004KT 29/16 A3003 RMK A01 T02940161  RH  044%=      5-min Rain = 0
KLA1 210342Z 12004KT 29/16 A3003 RMK A01 T02940161  RH  044%=      5-min Rain = 0
KLA1 210343Z 13004KT 29/16 A3003 RMK A01 T02940161  RH  045%=      5-min Rain = 0
KLA1 210344Z 13004KT 29/16 A3003 RMK A01 T02940160  RH  044%=      5-min Rain = 0
KLA1 210345Z 12004KT 29/16 A3003 RMK A01 T02940160  RH  045%=      5-min Rain = 0
KLA1 210346Z 12004KT 29/16 A3003 RMK A01 T02940160  RH  044%=      5-min Rain = 0
KLA1 210347Z 12003KT 29/16 A3003 RMK A01 T02940160  RH  044%=      5-min Rain = 0
KLA1 210348Z 12003KT 29/16 A3003 RMK A01 T02930160  RH  044%=      5-min Rain = 0
KLA1 210349Z 11003KT 29/16 A3003 RMK A01 T02930160  RH  044%=      5-min Rain = 0
KLA1 210350Z 12004KT 29/16 A3003 RMK A01 T02930160  RH  045%=      5-min Rain = 0
KLA1 210351Z 13004KT 29/16 A3003 RMK A01 T02930160  RH  045%=      5-min Rain = 0
KLA1 210352Z 13004KT 29/16 A3003 RMK A01 T02930159  RH  044%=      5-min Rain = 0
KLA1 210353Z 12004KT 29/16 A3003 RMK A01 T02930160  RH  044%=      5-min Rain = 0
KLA1 210354Z 12003KT 29/16 A3003 RMK A01 T02930160  RH  044%=      5-min Rain = 0
KLA1 210355Z 13004KT 29/16 A3003 RMK A01 T02930160  RH  045%=      5-min Rain = 0
KLA1 210356Z 12004KT 29/16 A3003 RMK A01 T02930158  RH  044%=      5-min Rain = 0
KLA1 210357Z 12004KT 29/16 A3003 RMK A01 T02940158  RH  044%=      5-min Rain = 0
KLA1 210358Z 12004KT 29/16 A3003 RMK A01 T02940158  RH  044%=      5-min Rain = 0
KLA1 210359Z 12004KT 29/16 A3003 RMK A01 T02940158  RH  044%=      5-min Rain = 0
KLA1 210400Z 12004KT 29/16 A3003 RMK A01 T02940159  RH  044%=      5-min Rain = 0
KLA1 210401Z 12004KT 29/16 A3003 RMK A01 T02940159  RH  044%=      5-min Rain = 0
KLA1 210402Z 13004KT 29/16 A3003 RMK A01 T02940159  RH  044%=      5-min Rain = 0
KLA1 210403Z 12004KT 29/16 A3003 RMK A01 T02940159  RH  044%=      5-min Rain = 0
KLA1 210404Z 12004KT 29/16 A3003 RMK A01 T02940159  RH  044%=      5-min Rain = 0
KLA1 210405Z 12004KT 29/16 A3003 RMK A01 T02930158  RH  044%=      5-min Rain = 0
KLA1 210406Z 11005KT 29/16 A3003 RMK A01 T02930158  RH  044%=      5-min Rain = 0
KLA1 210407Z 12004KT 29/16 A3003 RMK A01 T02920159  RH  044%=      5-min Rain = 0
KLA1 210408Z 11004KT 29/16 A3003 RMK A01 T02920159  RH  044%=      5-min Rain = 0
KLA1 210409Z 12004KT 29/16 A3003 RMK A01 T02920159  RH  045%=      5-min Rain = 0
KLA1 210410Z 12004KT 29/16 A3003 RMK A01 T02920158  RH  044%=      5-min Rain = 0
KLA1 210411Z 12004KT 29/16 A3003 RMK A01 T02920159  RH  045%=      5-min Rain = 0
KLA1 210412Z 12005KT 29/16 A3003 RMK A01 T02920159  RH  045%=      5-min Rain = 0
KLA1 210413Z 12004KT 29/16 A3003 RMK A01 T02920159  RH  045%=      5-min Rain = 0
KLA1 210414Z 12004KT 29/16 A3003 RMK A01 T02920158  RH  044%=      5-min Rain = 0
KLA1 210415Z 12004KT 29/16 A3003 RMK A01 T02920159  RH  044%=      5-min Rain = 0
KLA1 210416Z 11004KT 29/16 A3003 RMK A01 T02920159  RH  045%=      5-min Rain = 0
KLA1 210417Z 12004KT 29/16 A3003 RMK A01 T02920159  RH  045%=      5-min Rain = 0
KLA1 210418Z 12004KT 29/16 A3003 RMK A01 T02920159  RH  045%=      5-min Rain = 0
KLA1 210419Z 11004KT 29/16 A3003 RMK A01 T02910159  RH  045%=      5-min Rain = 0
KLA1 210420Z 11004KT 29/16 A3003 RMK A01 T02910159  RH  045%=      5-min Rain = 0
KLA1 210421Z 12004KT 29/16 A3003 RMK A01 T02910160  RH  045%=      5-min Rain = 0
KLA1 210422Z 12004KT 29/16 A3003 RMK A01 T02900158  RH  045%=      5-min Rain = 0
KLA1 210423Z 12004KT 29/16 A3003 RMK A01 T02900158  RH  045%=      5-min Rain = 0
KLA1 210424Z 12004KT 29/16 A3003 RMK A01 T02910158  RH  045%=      5-min Rain = 0
KLA1 210425Z 12004KT 29/16 A3003 RMK A01 T02910158  RH  044%=      5-min Rain = 0
KLA1 210426Z 12004KT 29/16 A3003 RMK A01 T02910159  RH  045%=      5-min Rain = 0
KLA1 210427Z 12004KT 29/16 A3003 RMK A01 T02910159  RH  045%=      5-min Rain = 0
KLA1 210428Z 12004KT 29/16 A3003 RMK A01 T02900159  RH  045%=      5-min Rain = 0
KLA1 210429Z 12004KT 29/16 A3003 RMK A01 T02900159  RH  045%=      5-min Rain = 0
KLA1 210430Z 11004KT 29/16 A3003 RMK A01 T02890159  RH  045%=      5-min Rain = 0
KLA1 210431Z 12004KT 29/16 A3003 RMK A01 T02890159  RH  045%=      5-min Rain = 0
KLA1 210432Z 12004KT 29/16 A3003 RMK A01 T02890159  RH  045%=      5-min Rain = 0
KLA1 210433Z 12004KT 29/16 A3003 RMK A01 T02890159  RH  045%=      5-min Rain = 0
KLA1 210434Z 12004KT 29/16 A3003 RMK A01 T02890160  RH  045%=      5-min Rain = 0
KLA1 210435Z 12005KT 29/16 A3003 RMK A01 T02890159  RH  045%=      5-min Rain = 0
KLA1 210436Z 12005KT 29/16 A3003 RMK A01 T02890159  RH  045%=      5-min Rain = 0
KLA1 210437Z 12005KT 29/16 A3003 RMK A01 T02880159  RH  045%=      5-min Rain = 0
KLA1 210438Z 12004KT 29/16 A3003 RMK A01 T02890159  RH  045%=      5-min Rain = 0
KLA1 210439Z 12004KT 29/16 A3003 RMK A01 T02880159  RH  046%=      5-min Rain = 0
KLA1 210440Z 12004KT 29/16 A3003 RMK A01 T02880160  RH  046%=      5-min Rain = 0
KLA1 210441Z 12005KT 29/16 A3003 RMK A01 T02880160  RH  046%=      5-min Rain = 0
KLA1 210442Z 12005KT 29/16 A3003 RMK A01 T02880159  RH  046%=      5-min Rain = 0
KLA1 210443Z 12005KT 29/16 A3003 RMK A01 T02870158  RH  046%=      5-min Rain = 0
KLA1 210444Z 12005KT 29/16 A3003 RMK A01 T02880159  RH  045%=      5-min Rain = 0
KLA1 210445Z 12004KT 29/16 A3003 RMK A01 T02890159  RH  045%=      5-min Rain = 0
KLA1 210446Z 12005KT 29/16 A3003 RMK A01 T02890159  RH  045%=      5-min Rain = 0
KLA1 210447Z 11005KT 29/16 A3003 RMK A01 T02890159  RH  045%=      5-min Rain = 0
KLA1 210448Z 12005KT 29/16 A3003 RMK A01 T02890159  RH  045%=      5-min Rain = 0
KLA1 210449Z 12005KT 29/16 A3003 RMK A01 T02890159  RH  045%=      5-min Rain = 0
KLA1 210450Z 12005KT 29/16 A3003 RMK A01 T02890159  RH  045%=      5-min Rain = 0
KLA1 210451Z 12005KT 29/16 A3003 RMK A01 T02890159  RH  045%=      5-min Rain = 0
KLA1 210452Z 12005KT 29/16 A3003 RMK A01 T02900159  RH  045%=      5-min Rain = 0
KLA1 210453Z 13005KT 29/16 A3003 RMK A01 T02900159  RH  045%=      5-min Rain = 0
KLA1 210454Z 12005KT 29/16 A3003 RMK A01 T02900159  RH  045%=      5-min Rain = 0
KLA1 210455Z 12005KT 29/16 A3003 RMK A01 T02900160  RH  045%=      5-min Rain = 0
KLA1 210456Z 12005KT 29/16 A3003 RMK A01 T02900160  RH  045%=      5-min Rain = 0
KLA1 210457Z 11004KT 29/16 A3003 RMK A01 T02890160  RH  046%=      5-min Rain = 0
KLA1 210458Z 11004KT 29/16 A3003 RMK A01 T02880160  RH  046%=      5-min Rain = 0
KLA1 210459Z 12005KT 29/16 A3003 RMK A01 T02880160  RH  046%=      5-min Rain = 0

Page generated in 0.1254 seconds.